Darstellungsparameter: Aktuell verwendete Einstellungen:
Skalierung der Graphiken ... ?
xyx+y,   Skalierungsfaktor:      Skalierung: Modus: x, Faktor: 1
Darstellungszeitraum ... ?
Vom - - bis: - -   Zeitraum: 09.08.2017 - 15.08.2017
Min/Max/Avg-Anzeige ... ?
Zeige MMA aktuell
Zeige MMA Monat
Zeige MMA alles
Zeige --A aktuell
Zeige --A Monat
Zeige --A alles
Keine MMA-Anzeige
MMA:
Minimum Maximum Average (ber die Originaldaten)
MMA-Basis: 09.08.2017 - 15.08.2017
Quicknavigation für Darstellung... ?
Tage:      1T, 2T, 3T, 5T -1T -2T -3T -5T +1T +2T +3T +5T
Wochen: 1W, 2W, 3W -1W -2W -3W +1W +2W +3W
Monate: 1M, 3M, 6M -1M -3M -6M +1M +3M +6M
Jahre:    1J, 3J, 5J, 10J -1J -3J -5J -10J +1J +3J +5J +10J
Nutze für die Darstellung ... ?
Originaldaten oder Mittelwerte auf ...
Stundenbasis Tagesbasis Wochenbasis
Monatsbasis Jahresbasis      Datenbasis: Original-Daten
Darstellen als:
Statistik (Auto) Statistik J:M      Darstellung:
Zur Graphik,    zurück zur Übersicht aller Sensoren.
 
Tabellarische Datenbersicht: ?
 
Sensor: Nr:Datum:Temp:Feuchte:Taupunkt:
Aussen-T/F 1 09-08-2017 00:00:00 14.9 C 90 % 13.28 C
2 09-08-2017 00:05:00 14.8 C 90 % 13.18 C
3 09-08-2017 00:10:00 14.8 C 91 % 13.35 C
4 09-08-2017 00:15:00 14.7 C 91 % 13.25 C
5 09-08-2017 00:20:00 14.7 C 91 % 13.25 C
6 09-08-2017 00:25:00 14.6 C 91 % 13.15 C
7 09-08-2017 00:30:00 14.5 C 91 % 13.05 C
8 09-08-2017 00:35:00 14.5 C 92 % 13.22 C
9 09-08-2017 00:40:00 14.5 C 92 % 13.22 C
10 09-08-2017 00:45:00 14.4 C 92 % 13.12 C
11 09-08-2017 00:50:00 14.4 C 92 % 13.12 C
12 09-08-2017 00:55:00 14.4 C 92 % 13.12 C
13 09-08-2017 01:00:00 14.4 C 92 % 13.12 C
14 09-08-2017 01:05:00 14.4 C 92 % 13.12 C
15 09-08-2017 01:10:00 14.4 C 91 % 12.95 C
16 09-08-2017 01:15:00 14.4 C 91 % 12.95 C
17 09-08-2017 01:20:00 14.4 C 91 % 12.95 C
18 09-08-2017 01:25:00 14.4 C 90 % 12.78 C
19 09-08-2017 01:30:00 14.4 C 90 % 12.78 C
20 09-08-2017 01:35:00 14.5 C 90 % 12.88 C
21 09-08-2017 01:40:00 14.6 C 90 % 12.98 C
22 09-08-2017 01:45:00 14.7 C 90 % 13.08 C
23 09-08-2017 01:50:00 14.7 C 89 % 12.91 C
24 09-08-2017 01:55:00 14.7 C 89 % 12.91 C
25 09-08-2017 02:00:00 14.6 C 89 % 12.81 C
Sensor: Nr:Datum:Temp:Feuchte:Taupunkt:
Aussen-T/F 26 09-08-2017 02:05:00 14.6 C 89 % 12.81 C
27 09-08-2017 02:10:00 14.5 C 89 % 12.71 C
28 09-08-2017 02:15:00 14.5 C 89 % 12.71 C
29 09-08-2017 02:20:00 14.5 C 89 % 12.71 C
30 09-08-2017 02:25:00 14.4 C 89 % 12.61 C
31 09-08-2017 02:30:00 14.4 C 89 % 12.61 C
32 09-08-2017 02:35:00 14.3 C 89 % 12.51 C
33 09-08-2017 02:40:00 14.3 C 89 % 12.51 C
34 09-08-2017 02:45:00 14.2 C 90 % 12.58 C
35 09-08-2017 02:50:00 14.2 C 90 % 12.58 C
36 09-08-2017 02:55:00 14.1 C 90 % 12.49 C
37 09-08-2017 03:00:00 14.1 C 90 % 12.49 C
38 09-08-2017 03:05:00 14.2 C 91 % 12.75 C
39 09-08-2017 03:10:00 14.3 C 91 % 12.85 C
40 09-08-2017 03:15:00 14.3 C 91 % 12.85 C
41 09-08-2017 03:20:00 14.4 C 91 % 12.95 C
42 09-08-2017 03:25:00 14.4 C 91 % 12.95 C
43 09-08-2017 03:30:00 14.4 C 90 % 12.78 C
44 09-08-2017 03:35:00 14.4 C 90 % 12.78 C
45 09-08-2017 03:40:00 14.4 C 90 % 12.78 C
46 09-08-2017 03:45:00 14.5 C 90 % 12.88 C
47 09-08-2017 03:50:00 14.6 C 90 % 12.98 C
48 09-08-2017 03:55:00 14.7 C 90 % 13.08 C
49 09-08-2017 04:00:00 14.7 C 90 % 13.08 C
50 09-08-2017 04:05:00 14.8 C 89 % 13.01 C
Sensor: Nr:Datum:Temp:Feuchte:Taupunkt:
Aussen-T/F 51 09-08-2017 04:10:00 14.9 C 88 % 12.93 C
52 09-08-2017 04:15:00 15 C 88 % 13.03 C
53 09-08-2017 04:20:00 15.1 C 87 % 12.95 C
54 09-08-2017 04:25:00 15.2 C 86 % 12.88 C
55 09-08-2017 04:30:00 15.3 C 86 % 12.97 C
56 09-08-2017 04:35:00 15.2 C 86 % 12.88 C
57 09-08-2017 04:40:00 15.2 C 86 % 12.88 C
58 09-08-2017 04:45:00 15.2 C 86 % 12.88 C
59 09-08-2017 04:50:00 15.2 C 86 % 12.88 C
60 09-08-2017 04:55:00 15.1 C 86 % 12.78 C
61 09-08-2017 05:00:00 15.1 C 86 % 12.78 C
62 09-08-2017 05:05:00 15 C 86 % 12.68 C
63 09-08-2017 05:10:00 14.9 C 86 % 12.58 C
64 09-08-2017 05:15:00 14.8 C 86 % 12.48 C
65 09-08-2017 05:20:00 14.8 C 87 % 12.66 C
66 09-08-2017 05:25:00 14.8 C 86 % 12.48 C
67 09-08-2017 05:30:00 14.8 C 87 % 12.66 C
68 09-08-2017 05:35:00 14.7 C 87 % 12.56 C
69 09-08-2017 05:40:00 14.6 C 87 % 12.46 C
70 09-08-2017 05:45:00 14.4 C 87 % 12.27 C
71 09-08-2017 05:50:00 14.3 C 87 % 12.17 C
72 09-08-2017 05:55:00 14.2 C 87 % 12.07 C
73 09-08-2017 06:00:00 14.1 C 88 % 12.14 C
74 09-08-2017 06:05:00 14 C 88 % 12.05 C
75 09-08-2017 06:10:00 13.9 C 89 % 12.12 C
Sensor: Nr:Datum:Temp:Feuchte:Taupunkt:
Aussen-T/F 76 09-08-2017 06:15:00 13.8 C 89 % 12.02 C
77 09-08-2017 06:20:00 13.7 C 89 % 11.92 C
78 09-08-2017 06:25:00 13.6 C 90 % 11.99 C
79 09-08-2017 06:30:00 13.6 C 90 % 11.99 C
80 09-08-2017 06:35:00 13.6 C 91 % 12.16 C
81 09-08-2017 06:40:00 13.6 C 91 % 12.16 C
82 09-08-2017 06:45:00 13.6 C 91 % 12.16 C
83 09-08-2017 06:50:00 13.7 C 91 % 12.26 C
84 09-08-2017 06:55:00 13.7 C 91 % 12.26 C
85 09-08-2017 07:00:00 13.7 C 91 % 12.26 C
86 09-08-2017 07:05:00 13.7 C 91 % 12.26 C
87 09-08-2017 07:10:00 13.7 C 91 % 12.26 C
88 09-08-2017 07:15:00 13.7 C 91 % 12.26 C
89 09-08-2017 07:20:00 13.7 C 91 % 12.26 C
90 09-08-2017 07:25:00 13.7 C 92 % 12.42 C
91 09-08-2017 07:30:00 13.8 C 92 % 12.52 C
92 09-08-2017 07:35:00 13.9 C 92 % 12.62 C
93 09-08-2017 07:40:00 14.1 C 92 % 12.82 C
94 09-08-2017 07:45:00 14.2 C 92 % 12.92 C
95 09-08-2017 07:50:00 14.2 C 91 % 12.75 C
96 09-08-2017 07:55:00 14.3 C 90 % 12.68 C
97 09-08-2017 08:00:00 14.3 C 90 % 12.68 C
98 09-08-2017 08:05:00 14.3 C 90 % 12.68 C
99 09-08-2017 08:10:00 14.3 C 89 % 12.51 C
100 09-08-2017 08:15:00 14.4 C 89 % 12.61 C
Sensor: Nr:Datum:Temp:Feuchte:Taupunkt:
Aussen-T/F 101 09-08-2017 08:20:00 14.6 C 88 % 12.64 C
102 09-08-2017 08:25:00 14.7 C 86 % 12.38 C
103 09-08-2017 08:30:00 14.9 C 85 % 12.4 C
104 09-08-2017 08:35:00 15 C 85 % 12.5 C
105 09-08-2017 08:40:00 15.1 C 86 % 12.78 C
106 09-08-2017 08:45:00 15.1 C 85 % 12.6 C
107 09-08-2017 08:50:00 15.2 C 86 % 12.88 C
108 09-08-2017 08:55:00 15.3 C 85 % 12.79 C
109 09-08-2017 09:00:00 15.4 C 84 % 12.71 C
110 09-08-2017 09:05:00 15.4 C 83 % 12.53 C
111 09-08-2017 09:10:00 15.5 C 82 % 12.44 C
112 09-08-2017 09:15:00 15.6 C 82 % 12.54 C
113 09-08-2017 09:20:00 15.8 C 81 % 12.55 C
114 09-08-2017 09:25:00 15.9 C 81 % 12.65 C
115 09-08-2017 09:30:00 16 C 80 % 12.55 C
116 09-08-2017 09:35:00 16.1 C 79 % 12.46 C
117 09-08-2017 09:40:00 16.2 C 79 % 12.56 C
118 09-08-2017 09:45:00 16.2 C 79 % 12.56 C
119 09-08-2017 09:50:00 16.2 C 80 % 12.75 C
120 09-08-2017 09:55:00 16.3 C 79 % 12.65 C
121 09-08-2017 10:00:00 16.3 C 78 % 12.46 C
122 09-08-2017 10:05:00 16.4 C 78 % 12.56 C
123 09-08-2017 10:10:00 16.5 C 78 % 12.65 C
124 09-08-2017 10:15:00 16.6 C 78 % 12.75 C
125 09-08-2017 10:20:00 16.7 C 79 % 13.04 C
Sensor: Nr:Datum:Temp:Feuchte:Taupunkt:
Aussen-T/F 126 09-08-2017 10:25:00 16.8 C 78 % 12.94 C
127 09-08-2017 10:30:00 16.9 C 78 % 13.04 C
128 09-08-2017 10:35:00 17 C 77 % 12.94 C
129 09-08-2017 10:40:00 17.1 C 78 % 13.24 C
130 09-08-2017 10:45:00 17.3 C 76 % 13.03 C
131 09-08-2017 10:50:00 17.3 C 76 % 13.03 C
132 09-08-2017 10:55:00 17.4 C 77 % 13.33 C
133 09-08-2017 11:00:00 17.6 C 74 % 12.91 C
134 09-08-2017 11:05:00 17.7 C 75 % 13.22 C
135 09-08-2017 11:10:00 17.8 C 75 % 13.31 C
136 09-08-2017 11:15:00 17.9 C 79 % 14.21 C
137 09-08-2017 11:20:00 17.8 C 75 % 13.31 C
138 09-08-2017 11:25:00 17.8 C 74 % 13.11 C
139 09-08-2017 11:30:00 17.8 C 76 % 13.52 C
140 09-08-2017 11:35:00 17.9 C 75 % 13.41 C
141 09-08-2017 11:40:00 18 C 75 % 13.51 C
142 09-08-2017 11:45:00 18.2 C 76 % 13.9 C
143 09-08-2017 11:50:00 18.2 C 74 % 13.49 C
144 09-08-2017 11:55:00 18.3 C 73 % 13.38 C
145 09-08-2017 12:00:00 18.3 C 75 % 13.79 C
146 09-08-2017 12:05:00 18.3 C 74 % 13.59 C
147 09-08-2017 12:10:00 18.4 C 76 % 14.1 C
148 09-08-2017 12:15:00 18.6 C 74 % 13.88 C
149 09-08-2017 12:20:00 18.8 C 72 % 13.65 C
150 09-08-2017 12:25:00 19 C 71 % 13.63 C
Sensor: Nr:Datum:Temp:Feuchte:Taupunkt:
Aussen-T/F 151 09-08-2017 12:30:00 19.2 C 69 % 13.38 C
152 09-08-2017 12:35:00 19.3 C 68 % 13.25 C
153 09-08-2017 12:40:00 19.4 C 68 % 13.34 C
154 09-08-2017 12:45:00 19.5 C 69 % 13.66 C
155 09-08-2017 12:50:00 19.5 C 67 % 13.21 C
156 09-08-2017 12:55:00 19.4 C 70 % 13.79 C
157 09-08-2017 13:00:00 19.4 C 68 % 13.34 C
158 09-08-2017 13:05:00 19.6 C 67 % 13.31 C
159 09-08-2017 13:10:00 19.7 C 67 % 13.4 C
160 09-08-2017 13:15:00 19.8 C 67 % 13.5 C
161 09-08-2017 13:20:00 19.9 C 65 % 13.13 C
162 09-08-2017 13:25:00 20.1 C 65 % 13.32 C
163 09-08-2017 13:30:00 20.2 C 68 % 14.11 C
164 09-08-2017 13:35:00 20.2 C 66 % 13.65 C
165 09-08-2017 13:40:00 20.2 C 70 % 14.56 C
166 09-08-2017 13:45:00 20.1 C 67 % 13.78 C
167 09-08-2017 13:50:00 20.1 C 65 % 13.32 C
168 09-08-2017 13:55:00 20.1 C 65 % 13.32 C
169 09-08-2017 14:00:00 20.1 C 64 % 13.08 C
170 09-08-2017 14:05:00 20.2 C 63 % 12.94 C
171 09-08-2017 14:10:00 20.4 C 61 % 12.63 C
172 09-08-2017 14:15:00 20.6 C 61 % 12.82 C
173 09-08-2017 14:20:00 20.7 C 60 % 12.66 C
174 09-08-2017 14:25:00 20.8 C 58 % 12.24 C
175 09-08-2017 14:30:00 21.1 C 58 % 12.52 C
Sensor: Nr:Datum:Temp:Feuchte:Taupunkt:
Aussen-T/F 176 09-08-2017 14:35:00 21.3 C 57 % 12.44 C
177 09-08-2017 14:40:00 21.6 C 55 % 12.18 C
178 09-08-2017 14:45:00 21.8 C 57 % 12.91 C
179 09-08-2017 14:50:00 21.9 C 61 % 14.04 C
180 09-08-2017 14:55:00 21.9 C 58 % 13.27 C
181 09-08-2017 15:00:00 22 C 58 % 13.36 C
182 09-08-2017 15:05:00 22.1 C 55 % 12.64 C
183 09-08-2017 15:10:00 22.2 C 55 % 12.73 C
184 09-08-2017 15:15:00 22.3 C 57 % 13.37 C
185 09-08-2017 15:20:00 22.6 C 57 % 13.65 C
186 09-08-2017 15:25:00 22.7 C 56 % 13.47 C
187 09-08-2017 15:30:00 22.7 C 57 % 13.75 C
188 09-08-2017 15:35:00 22.7 C 66 % 16.02 C
189 09-08-2017 15:40:00 22.6 C 59 % 14.18 C
190 09-08-2017 15:45:00 22.6 C 56 % 13.38 C
191 09-08-2017 15:50:00 22.8 C 55 % 13.29 C
192 09-08-2017 15:55:00 23.2 C 57 % 14.21 C
193 09-08-2017 16:00:00 23.6 C 53 % 13.46 C
194 09-08-2017 16:05:00 23.7 C 52 % 13.26 C
195 09-08-2017 16:10:00 23.9 C 53 % 13.74 C
196 09-08-2017 16:15:00 24.4 C 49 % 13 C
197 09-08-2017 16:20:00 24.4 C 56 % 15.06 C
198 09-08-2017 16:25:00 24.2 C 60 % 15.95 C
199 09-08-2017 16:30:00 23.7 C 60 % 15.48 C
200 09-08-2017 16:35:00 23.4 C 58 % 14.67 C
Sensor: Nr:Datum:Temp:Feuchte:Taupunkt:
Aussen-T/F 201 09-08-2017 16:40:00 23.4 C 55 % 13.85 C
202 09-08-2017 16:45:00 23.3 C 55 % 13.76 C
203 09-08-2017 16:50:00 23.4 C 57 % 14.4 C
204 09-08-2017 16:55:00 23.8 C 54 % 13.94 C
205 09-08-2017 17:00:00 24.1 C 53 % 13.93 C
206 09-08-2017 17:05:00 23.9 C 60 % 15.66 C
207 09-08-2017 17:10:00 23.5 C 58 % 14.76 C
208 09-08-2017 17:15:00 23.2 C 64 % 16.01 C
209 09-08-2017 17:20:00 22.9 C 66 % 16.21 C
210 09-08-2017 17:25:00 22.6 C 69 % 16.62 C
211 09-08-2017 17:30:00 22.2 C 69 % 16.24 C
212 09-08-2017 17:35:00 21.9 C 71 % 16.4 C
213 09-08-2017 17:40:00 21.7 C 72 % 16.43 C
214 09-08-2017 17:45:00 21.9 C 75 % 17.27 C
215 09-08-2017 17:50:00 22.2 C 70 % 16.47 C
216 09-08-2017 17:55:00 22.3 C 72 % 17.01 C
217 09-08-2017 18:00:00 22.7 C 67 % 16.26 C
218 09-08-2017 18:05:00 23.2 C 70 % 17.42 C
219 09-08-2017 18:10:00 23.3 C 69 % 17.29 C
220 09-08-2017 18:15:00 23.2 C 67 % 16.73 C
221 09-08-2017 18:20:00 22.9 C 69 % 16.91 C
222 09-08-2017 18:25:00 22.8 C 68 % 16.59 C
223 09-08-2017 18:30:00 22.6 C 69 % 16.62 C
224 09-08-2017 18:35:00 22.5 C 69 % 16.53 C
225 09-08-2017 18:40:00 22.4 C 71 % 16.88 C
Sensor: Nr:Datum:Temp:Feuchte:Taupunkt:
Aussen-T/F 226 09-08-2017 18:45:00 22.4 C 71 % 16.88 C
227 09-08-2017 18:50:00 22.4 C 71 % 16.88 C
228 09-08-2017 18:55:00 22.4 C 71 % 16.88 C
229 09-08-2017 19:00:00 22.4 C 72 % 17.1 C
230 09-08-2017 19:05:00 22.4 C 70 % 16.66 C
231 09-08-2017 19:10:00 22.2 C 70 % 16.47 C
232 09-08-2017 19:15:00 21.8 C 70 % 16.09 C
233 09-08-2017 19:20:00 21.4 C 71 % 15.93 C
234 09-08-2017 19:25:00 21.2 C 72 % 15.95 C
235 09-08-2017 19:30:00 21.1 C 73 % 16.07 C
236 09-08-2017 19:35:00 21.1 C 75 % 16.5 C
237 09-08-2017 19:40:00 21.3 C 73 % 16.26 C
238 09-08-2017 19:45:00 21.3 C 73 % 16.26 C
239 09-08-2017 19:50:00 21.3 C 73 % 16.26 C
240 09-08-2017 19:55:00 21.4 C 73 % 16.36 C
241 09-08-2017 20:00:00 21.3 C 71 % 15.83 C
242 09-08-2017 20:05:00 21.3 C 71 % 15.83 C
243 09-08-2017 20:10:00 21.2 C 72 % 15.95 C
244 09-08-2017 20:15:00 21.1 C 72 % 15.86 C
245 09-08-2017 20:20:00 20.8 C 71 % 15.35 C
246 09-08-2017 20:25:00 20.4 C 71 % 14.97 C
247 09-08-2017 20:30:00 20 C 72 % 14.8 C
248 09-08-2017 20:35:00 19.6 C 72 % 14.42 C
249 09-08-2017 20:40:00 19.3 C 73 % 14.34 C
250 09-08-2017 20:45:00 19.1 C 73 % 14.15 C
Sensor: Nr:Datum:Temp:Feuchte:Taupunkt:
Aussen-T/F 251 09-08-2017 20:50:00 18.8 C 74 % 14.07 C
252 09-08-2017 20:55:00 18.6 C 74 % 13.88 C
253 09-08-2017 21:00:00 18.4 C 74 % 13.68 C
254 09-08-2017 21:05:00 18.2 C 74 % 13.49 C
255 09-08-2017 21:10:00 18.1 C 75 % 13.6 C
256 09-08-2017 21:15:00 17.9 C 76 % 13.61 C
257 09-08-2017 21:20:00 17.8 C 77 % 13.72 C
258 09-08-2017 21:25:00 17.6 C 77 % 13.52 C
259 09-08-2017 21:30:00 17.5 C 77 % 13.43 C
260 09-08-2017 21:35:00 17.3 C 78 % 13.43 C
261 09-08-2017 21:40:00 17.3 C 77 % 13.23 C
262 09-08-2017 21:45:00 17.2 C 77 % 13.14 C
263 09-08-2017 21:50:00 17.1 C 79 % 13.43 C
264 09-08-2017 21:55:00 16.9 C 78 % 13.04 C
265 09-08-2017 22:00:00 16.8 C 80 % 13.33 C
266 09-08-2017 22:05:00 16.7 C 80 % 13.23 C
267 09-08-2017 22:10:00 16.5 C 80 % 13.04 C
268 09-08-2017 22:15:00 16.4 C 82 % 13.32 C
269 09-08-2017 22:20:00 16.3 C 82 % 13.22 C
270 09-08-2017 22:25:00 16.1 C 82 % 13.03 C
271 09-08-2017 22:30:00 15.9 C 83 % 13.02 C
272 09-08-2017 22:35:00 15.8 C 84 % 13.1 C
273 09-08-2017 22:40:00 15.8 C 84 % 13.1 C
274 09-08-2017 22:45:00 15.7 C 84 % 13.01 C
275 09-08-2017 22:50:00 15.6 C 85 % 13.09 C
Sensor: Nr:Datum:Temp:Feuchte:Taupunkt:
Aussen-T/F 276 09-08-2017 22:55:00 15.4 C 84 % 12.71 C
277 09-08-2017 23:00:00 15.4 C 85 % 12.89 C
278 09-08-2017 23:05:00 15.3 C 86 % 12.97 C
279 09-08-2017 23:10:00 15.4 C 87 % 13.25 C
280 09-08-2017 23:15:00 15.4 C 86 % 13.07 C
281 09-08-2017 23:20:00 15.4 C 86 % 13.07 C
282 09-08-2017 23:25:00 15.6 C 87 % 13.45 C
283 09-08-2017 23:30:00 15.6 C 86 % 13.27 C
284 09-08-2017 23:35:00 15.7 C 86 % 13.37 C
285 09-08-2017 23:40:00 15.8 C 86 % 13.46 C
286 09-08-2017 23:45:00 15.8 C 86 % 13.46 C
287 09-08-2017 23:50:00 15.9 C 86 % 13.56 C
288 09-08-2017 23:55:00 15.9 C 87 % 13.74 C
289 10-08-2017 00:00:00 15.9 C 87 % 13.74 C
290 10-08-2017 00:05:00 15.9 C 87 % 13.74 C
291 10-08-2017 00:10:00 15.9 C 87 % 13.74 C
292 10-08-2017 00:15:00 15.9 C 87 % 13.74 C
293 10-08-2017 00:20:00 15.8 C 87 % 13.64 C
294 10-08-2017 00:25:00 15.8 C 87 % 13.64 C
295 10-08-2017 00:30:00 15.9 C 87 % 13.74 C
296 10-08-2017 00:35:00 15.9 C 88 % 13.92 C
297 10-08-2017 00:40:00 15.9 C 88 % 13.92 C
298 10-08-2017 00:45:00 16 C 88 % 14.01 C
299 10-08-2017 00:50:00 16 C 88 % 14.01 C
300 10-08-2017 00:55:00 16 C 88 % 14.01 C
Sensor: Nr:Datum:Temp:Feuchte:Taupunkt:
Aussen-T/F 301 10-08-2017 01:00:00 16 C 88 % 14.01 C
302 10-08-2017 01:05:00 16.1 C 89 % 14.29 C
303 10-08-2017 01:10:00 16.2 C 90 % 14.56 C
304 10-08-2017 01:15:00 16.2 C 90 % 14.56 C
305 10-08-2017 01:20:00 16.2 C 90 % 14.56 C
306 10-08-2017 01:25:00 16.1 C 90 % 14.46 C
307 10-08-2017 01:30:00 16.1 C 90 % 14.46 C
308 10-08-2017 01:35:00 16 C 91 % 14.53 C
309 10-08-2017 01:40:00 16 C 91 % 14.53 C
310 10-08-2017 01:45:00 15.9 C 91 % 14.43 C
311 10-08-2017 01:50:00 15.9 C 91 % 14.43 C
312 10-08-2017 01:55:00 15.9 C 91 % 14.43 C
313 10-08-2017 02:00:00 15.9 C 91 % 14.43 C
314 10-08-2017 02:05:00 15.8 C 92 % 14.5 C
315 10-08-2017 02:10:00 15.8 C 92 % 14.5 C
316 10-08-2017 02:15:00 15.7 C 92 % 14.4 C
317 10-08-2017 02:20:00 15.7 C 92 % 14.4 C
318 10-08-2017 02:25:00 15.7 C 92 % 14.4 C
319 10-08-2017 02:30:00 15.7 C 92 % 14.4 C
320 10-08-2017 02:35:00 15.7 C 92 % 14.4 C
321 10-08-2017 02:40:00 15.7 C 93 % 14.57 C
322 10-08-2017 02:45:00 15.6 C 93 % 14.47 C
323 10-08-2017 02:50:00 15.6 C 93 % 14.47 C
324 10-08-2017 02:55:00 15.6 C 93 % 14.47 C
325 10-08-2017 03:00:00 15.6 C 93 % 14.47 C
Sensor: Nr:Datum:Temp:Feuchte:Taupunkt:
Aussen-T/F 326 10-08-2017 03:05:00 15.6 C 93 % 14.47 C
327 10-08-2017 03:10:00 15.5 C 93 % 14.37 C
328 10-08-2017 03:15:00 15.6 C 93 % 14.47 C
329 10-08-2017 03:20:00 15.5 C 93 % 14.37 C
330 10-08-2017 03:25:00 15.5 C 94 % 14.54 C
331 10-08-2017 03:30:00 15.4 C 94 % 14.44 C
332 10-08-2017 03:35:00 15.4 C 93 % 14.27 C
333 10-08-2017 03:40:00 15.4 C 93 % 14.27 C
334 10-08-2017 03:45:00 15.4 C 94 % 14.44 C
335 10-08-2017 03:50:00 15.3 C 94 % 14.34 C
336 10-08-2017 03:55:00 15.3 C 94 % 14.34 C
337 10-08-2017 04:00:00 15.3 C 94 % 14.34 C
338 10-08-2017 04:05:00 15.3 C 94 % 14.34 C
339 10-08-2017 04:10:00 15.3 C 94 % 14.34 C
340 10-08-2017 04:15:00 15.3 C 94 % 14.34 C
341 10-08-2017 04:20:00 15.3 C 94 % 14.34 C
342 10-08-2017 04:25:00 15.3 C 94 % 14.34 C
343 10-08-2017 04:30:00 15.3 C 94 % 14.34 C
344 10-08-2017 04:35:00 15.3 C 94 % 14.34 C
345 10-08-2017 04:40:00 15.3 C 94 % 14.34 C
346 10-08-2017 04:45:00 15.3 C 94 % 14.34 C
347 10-08-2017 04:50:00 15.3 C 95 % 14.5 C
348 10-08-2017 04:55:00 15.3 C 95 % 14.5 C
349 10-08-2017 05:00:00 15.2 C 94 % 14.24 C
350 10-08-2017 05:05:00 15.2 C 94 % 14.24 C
Sensor: Nr:Datum:Temp:Feuchte:Taupunkt:
Aussen-T/F 351 10-08-2017 05:10:00 15.2 C 95 % 14.4 C
352 10-08-2017 05:15:00 15.2 C 95 % 14.4 C
353 10-08-2017 05:20:00 15.2 C 95 % 14.4 C
354 10-08-2017 05:25:00 15.2 C 95 % 14.4 C
355 10-08-2017 05:30:00 15.2 C 95 % 14.4 C
356 10-08-2017 05:35:00 15.2 C 95 % 14.4 C
357 10-08-2017 05:40:00 15.2 C 95 % 14.4 C
358 10-08-2017 05:45:00 15.2 C 95 % 14.4 C
359 10-08-2017 05:50:00 15.2 C 95 % 14.4 C
360 10-08-2017 05:55:00 15.2 C 95 % 14.4 C
361 10-08-2017 06:00:00 15.2 C 95 % 14.4 C
362 10-08-2017 06:05:00 15.2 C 95 % 14.4 C
363 10-08-2017 06:10:00 15.2 C 95 % 14.4 C
364 10-08-2017 06:15:00 15.2 C 95 % 14.4 C
365 10-08-2017 06:20:00 15.2 C 95 % 14.4 C
366 10-08-2017 06:25:00 15.1 C 95 % 14.31 C
367 10-08-2017 06:30:00 15.1 C 95 % 14.31 C
368 10-08-2017 06:35:00 15.1 C 95 % 14.31 C
369 10-08-2017 06:40:00 15.1 C 95 % 14.31 C
370 10-08-2017 06:45:00 15.1 C 95 % 14.31 C
371 10-08-2017 06:50:00 15.1 C 96 % 14.47 C
372 10-08-2017 06:55:00 15.1 C 96 % 14.47 C
373 10-08-2017 07:00:00 15.1 C 96 % 14.47 C
374 10-08-2017 07:05:00 15.1 C 96 % 14.47 C
375 10-08-2017 07:10:00 15.1 C 96 % 14.47 C
Sensor: Nr:Datum:Temp:Feuchte:Taupunkt:
Aussen-T/F 376 10-08-2017 07:15:00 15.1 C 96 % 14.47 C
377 10-08-2017 07:20:00 15.1 C 96 % 14.47 C
378 10-08-2017 07:25:00 15.2 C 96 % 14.57 C
379 10-08-2017 07:30:00 15.2 C 96 % 14.57 C
380 10-08-2017 07:35:00 15.2 C 96 % 14.57 C
381 10-08-2017 07:40:00 15.2 C 96 % 14.57 C
382 10-08-2017 07:45:00 15.2 C 96 % 14.57 C
383 10-08-2017 07:50:00 15.2 C 96 % 14.57 C
384 10-08-2017 07:55:00 15.3 C 96 % 14.67 C
385 10-08-2017 08:00:00 15.3 C 96 % 14.67 C
386 10-08-2017 08:05:00 15.3 C 96 % 14.67 C
387 10-08-2017 08:10:00 15.2 C 96 % 14.57 C
388 10-08-2017 08:15:00 15.2 C 96 % 14.57 C
389 10-08-2017 08:20:00 15.2 C 96 % 14.57 C
390 10-08-2017 08:25:00 15.1 C 96 % 14.47 C
391 10-08-2017 08:30:00 15.1 C 96 % 14.47 C
392 10-08-2017 08:35:00 15.1 C 96 % 14.47 C
393 10-08-2017 08:40:00 15.1 C 96 % 14.47 C
394 10-08-2017 08:45:00 15.1 C 96 % 14.47 C
395 10-08-2017 08:50:00 15.1 C 96 % 14.47 C
396 10-08-2017 08:55:00 15.1 C 96 % 14.47 C
397 10-08-2017 09:00:00 15.1 C 96 % 14.47 C
398 10-08-2017 09:05:00 15.1 C 96 % 14.47 C
399 10-08-2017 09:10:00 15.1 C 96 % 14.47 C
400 10-08-2017 09:15:00 15.2 C 96 % 14.57 C
Sensor: Nr:Datum:Temp:Feuchte:Taupunkt:
Aussen-T/F 401 10-08-2017 09:20:00 15.2 C 96 % 14.57 C
402 10-08-2017 09:25:00 15.3 C 96 % 14.67 C
403 10-08-2017 09:30:00 15.3 C 96 % 14.67 C
404 10-08-2017 09:35:00 15.3 C 96 % 14.67 C
405 10-08-2017 09:40:00 15.3 C 96 % 14.67 C
406 10-08-2017 09:45:00 15.3 C 96 % 14.67 C
407 10-08-2017 09:50:00 15.3 C 96 % 14.67 C
408 10-08-2017 09:55:00 15.3 C 96 % 14.67 C
409 10-08-2017 10:00:00 15.4 C 96 % 14.77 C
410 10-08-2017 10:05:00 15.4 C 96 % 14.77 C
411 10-08-2017 10:10:00 15.5 C 96 % 14.86 C
412 10-08-2017 10:15:00 15.6 C 96 % 14.96 C
413 10-08-2017 10:20:00 15.6 C 96 % 14.96 C
414 10-08-2017 10:25:00 15.6 C 96 % 14.96 C
415 10-08-2017 10:30:00 15.7 C 96 % 15.06 C
416 10-08-2017 10:35:00 15.8 C 96 % 15.16 C
417 10-08-2017 10:40:00 15.8 C 96 % 15.16 C
418 10-08-2017 10:45:00 15.8 C 96 % 15.16 C
419 10-08-2017 10:50:00 15.8 C 96 % 15.16 C
420 10-08-2017 10:55:00 15.8 C 96 % 15.16 C
421 10-08-2017 11:00:00 15.9 C 96 % 15.26 C
422 10-08-2017 11:05:00 15.9 C 96 % 15.26 C
423 10-08-2017 11:10:00 15.9 C 96 % 15.26 C
424 10-08-2017 11:15:00 15.9 C 96 % 15.26 C
425 10-08-2017 11:20:00 15.9 C 96 % 15.26 C
Sensor: Nr:Datum:Temp:Feuchte:Taupunkt:
Aussen-T/F 426 10-08-2017 11:25:00 15.9 C 96 % 15.26 C
427 10-08-2017 11:30:00 16.1 C 96 % 15.46 C
428 10-08-2017 11:35:00 16.1 C 96 % 15.46 C
429 10-08-2017 11:40:00 15.9 C 96 % 15.26 C
430 10-08-2017 11:45:00 15.9 C 96 % 15.26 C
431 10-08-2017 11:50:00 16 C 96 % 15.36 C
432 10-08-2017 11:55:00 16.2 C 96 % 15.56 C
433 10-08-2017 12:00:00 16.3 C 96 % 15.66 C
434 10-08-2017 12:05:00 16.2 C 96 % 15.56 C
435 10-08-2017 12:10:00 16.2 C 96 % 15.56 C
436 10-08-2017 12:15:00 16.1 C 96 % 15.46 C
437 10-08-2017 12:20:00 16.2 C 96 % 15.56 C
438 10-08-2017 12:25:00 16.3 C 96 % 15.66 C
439 10-08-2017 12:30:00 16.4 C 96 % 15.76 C
440 10-08-2017 12:35:00 16.3 C 96 % 15.66 C
441 10-08-2017 12:40:00 16.3 C 95 % 15.5 C
442 10-08-2017 12:45:00 16.3 C 96 % 15.66 C
443 10-08-2017 12:50:00 16.4 C 96 % 15.76 C
444 10-08-2017 12:55:00 16.3 C 95 % 15.5 C
445 10-08-2017 13:00:00 16.3 C 95 % 15.5 C
446 10-08-2017 13:05:00 16.4 C 95 % 15.6 C
447 10-08-2017 13:10:00 16.4 C 96 % 15.76 C
448 10-08-2017 13:15:00 16.5 C 96 % 15.86 C
449 10-08-2017 13:20:00 16.6 C 96 % 15.96 C
450 10-08-2017 13:25:00 16.6 C 96 % 15.96 C
Sensor: Nr:Datum:Temp:Feuchte:Taupunkt:
Aussen-T/F 451 10-08-2017 13:30:00 16.6 C 96 % 15.96 C
452 10-08-2017 13:35:00 16.6 C 95 % 15.8 C
453 10-08-2017 13:40:00 16.3 C 94 % 15.33 C
454 10-08-2017 13:45:00 16.2 C 95 % 15.4 C
455 10-08-2017 13:50:00 16.4 C 95 % 15.6 C
456 10-08-2017 13:55:00 16.4 C 95 % 15.6 C
457 10-08-2017 14:00:00 16.3 C 95 % 15.5 C
458 10-08-2017 14:05:00 16.1 C 94 % 15.13 C
459 10-08-2017 14:10:00 15.9 C 94 % 14.94 C
460 10-08-2017 14:15:00 15.9 C 94 % 14.94 C
461 10-08-2017 14:20:00 15.8 C 94 % 14.84 C
462 10-08-2017 14:25:00 15.8 C 94 % 14.84 C
463 10-08-2017 14:30:00 15.8 C 95 % 15 C
464 10-08-2017 14:35:00 15.9 C 95 % 15.1 C
465 10-08-2017 14:40:00 15.9 C 95 % 15.1 C
466 10-08-2017 14:45:00 15.9 C 95 % 15.1 C
467 10-08-2017 14:50:00 16 C 95 % 15.2 C
468 10-08-2017 14:55:00 16.1 C 95 % 15.3 C
469 10-08-2017 15:00:00 16.2 C 95 % 15.4 C
470 10-08-2017 15:05:00 16.2 C 95 % 15.4 C
471 10-08-2017 15:10:00 16.2 C 95 % 15.4 C
472 10-08-2017 15:15:00 16.1 C 95 % 15.3 C
473 10-08-2017 15:20:00 16 C 95 % 15.2 C
474 10-08-2017 15:25:00 16 C 95 % 15.2 C
475 10-08-2017 15:30:00 16 C 95 % 15.2 C
Sensor: Nr:Datum:Temp:Feuchte:Taupunkt:
Aussen-T/F 476 10-08-2017 15:35:00 15.9 C 94 % 14.94 C
477 10-08-2017 15:40:00 15.7 C 94 % 14.74 C
478 10-08-2017 15:45:00 15.6 C 94 % 14.64 C
479 10-08-2017 15:50:00 15.6 C 94 % 14.64 C
480 10-08-2017 15:55:00 15.6 C 94 % 14.64 C
481 10-08-2017 16:00:00 15.5 C 94 % 14.54 C
482 10-08-2017 16:05:00 15.6 C 95 % 14.8 C
483 10-08-2017 16:10:00 15.6 C 95 % 14.8 C
484 10-08-2017 16:15:00 15.6 C 95 % 14.8 C
485 10-08-2017 16:20:00 15.6 C 95 % 14.8 C
486 10-08-2017 16:25:00 15.7 C 95 % 14.9 C
487 10-08-2017 16:30:00 15.6 C 95 % 14.8 C
488 10-08-2017 16:35:00 15.5 C 94 % 14.54 C
489 10-08-2017 16:40:00 15.4 C 94 % 14.44 C
490 10-08-2017 16:45:00 15.4 C 95 % 14.6 C
491 10-08-2017 16:50:00 15.3 C 95 % 14.5 C
492 10-08-2017 16:55:00 15.4 C 95 % 14.6 C
493 10-08-2017 17:00:00 15.5 C 95 % 14.7 C
494 10-08-2017 17:05:00 15.6 C 95 % 14.8 C
495 10-08-2017 17:10:00 15.6 C 95 % 14.8 C
496 10-08-2017 17:15:00 15.7 C 94 % 14.74 C
497 10-08-2017 17:20:00 15.7 C 95 % 14.9 C
498 10-08-2017 17:25:00 15.6 C 94 % 14.64 C
499 10-08-2017 17:30:00 15.7 C 95 % 14.9 C
500 10-08-2017 17:35:00 15.6 C 95 % 14.8 C
Sensor: Nr:Datum:Temp:Feuchte:Taupunkt:
Aussen-T/F 501 10-08-2017 17:40:00 15.7 C 95 % 14.9 C
502 10-08-2017 17:45:00 15.7 C 95 % 14.9 C
503 10-08-2017 17:50:00 15.6 C 95 % 14.8 C
504 10-08-2017 17:55:00 15.6 C 95 % 14.8 C
505 10-08-2017 18:00:00 15.6 C 94 % 14.64 C
506 10-08-2017 18:05:00 15.5 C 95 % 14.7 C
507 10-08-2017 18:10:00 15.4 C 95 % 14.6 C
508 10-08-2017 18:15:00 15.4 C 95 % 14.6 C
509 10-08-2017 18:20:00 15.3 C 95 % 14.5 C
510 10-08-2017 18:25:00 15.2 C 94 % 14.24 C
511 10-08-2017 18:30:00 15.2 C 95 % 14.4 C
512 10-08-2017 18:35:00 15.1 C 95 % 14.31 C
513 10-08-2017 18:40:00 15.2 C 95 % 14.4 C
514 10-08-2017 18:45:00 15.2 C 95 % 14.4 C
515 10-08-2017 18:50:00 15.2 C 95 % 14.4 C
516 10-08-2017 18:55:00 15.2 C 96 % 14.57 C
517 10-08-2017 19:00:00 15.2 C 96 % 14.57 C
518 10-08-2017 19:05:00 15.2 C 96 % 14.57 C
519 10-08-2017 19:10:00 15.2 C 96 % 14.57 C
520 10-08-2017 19:15:00 15.3 C 96 % 14.67 C
521 10-08-2017 19:20:00 15.3 C 96 % 14.67 C
522 10-08-2017 19:25:00 15.3 C 96 % 14.67 C
523 10-08-2017 19:30:00 15.3 C 96 % 14.67 C
524 10-08-2017 19:35:00 15.3 C 96 % 14.67 C
525 10-08-2017 19:40:00 15.2 C 96 % 14.57 C
Sensor: Nr:Datum:Temp:Feuchte:Taupunkt:
Aussen-T/F 526 10-08-2017 19:45:00 15.2 C 96 % 14.57 C
527 10-08-2017 19:50:00 15.2 C 96 % 14.57 C
528 10-08-2017 19:55:00 15.1 C 96 % 14.47 C
529 10-08-2017 20:00:00 15.1 C 96 % 14.47 C
530 10-08-2017 20:05:00 15.1 C 96 % 14.47 C
531 10-08-2017 20:10:00 15 C 96 % 14.37 C
532 10-08-2017 20:15:00 15 C 96 % 14.37 C
533 10-08-2017 20:20:00 14.9 C 96 % 14.27 C
534 10-08-2017 20:25:00 14.9 C 96 % 14.27 C
535 10-08-2017 20:30:00 14.9 C 96 % 14.27 C
536 10-08-2017 20:35:00 14.8 C 96 % 14.17 C
537 10-08-2017 20:40:00 14.8 C 96 % 14.17 C
538 10-08-2017 20:45:00 14.8 C 96 % 14.17 C
539 10-08-2017 20:50:00 14.7 C 96 % 14.07 C
540 10-08-2017 20:55:00 14.7 C 96 % 14.07 C
541 10-08-2017 21:00:00 14.7 C 96 % 14.07 C
542 10-08-2017 21:05:00 14.6 C 96 % 13.97 C
543 10-08-2017 21:10:00 14.6 C 96 % 13.97 C
544 10-08-2017 21:15:00 14.6 C 96 % 13.97 C
545 10-08-2017 21:20:00 14.6 C 96 % 13.97 C
546 10-08-2017 21:25:00 14.6 C 96 % 13.97 C
547 10-08-2017 21:30:00 14.6 C 96 % 13.97 C
548 10-08-2017 21:35:00 14.6 C 96 % 13.97 C
549 10-08-2017 21:40:00 14.6 C 96 % 13.97 C
550 10-08-2017 21:45:00 14.6 C 96 % 13.97 C
Sensor: Nr:Datum:Temp:Feuchte:Taupunkt:
Aussen-T/F 551 10-08-2017 21:50:00 14.6 C 96 % 13.97 C
552 10-08-2017 21:55:00 14.6 C 96 % 13.97 C
553 10-08-2017 22:00:00 14.6 C 96 % 13.97 C
554 10-08-2017 22:05:00 14.6 C 96 % 13.97 C
555 10-08-2017 22:10:00 14.6 C 96 % 13.97 C
556 10-08-2017 22:15:00 14.6 C 96 % 13.97 C
557 10-08-2017 22:20:00 14.6 C 96 % 13.97 C
558 10-08-2017 22:25:00 14.6 C 96 % 13.97 C
559 10-08-2017 22:30:00 14.6 C 96 % 13.97 C
560 10-08-2017 22:35:00 14.6 C 96 % 13.97 C
561 10-08-2017 22:40:00 14.6 C 96 % 13.97 C
562 10-08-2017 22:45:00 14.6 C 96 % 13.97 C
563 10-08-2017 22:50:00 14.6 C 96 % 13.97 C
564 10-08-2017 22:55:00 14.6 C 96 % 13.97 C
565 10-08-2017 23:00:00 14.6 C 96 % 13.97 C
566 10-08-2017 23:05:00 14.5 C 96 % 13.87 C
567 10-08-2017 23:10:00 14.5 C 96 % 13.87 C
568 10-08-2017 23:15:00 14.4 C 96 % 13.77 C
569 10-08-2017 23:20:00 14.5 C 96 % 13.87 C
570 10-08-2017 23:25:00 14.5 C 96 % 13.87 C
571 10-08-2017 23:30:00 14.5 C 96 % 13.87 C
572 10-08-2017 23:35:00 14.5 C 96 % 13.87 C
573 10-08-2017 23:40:00 14.6 C 96 % 13.97 C
574 10-08-2017 23:45:00 14.6 C 96 % 13.97 C
575 10-08-2017 23:50:00 14.6 C 96 % 13.97 C
Sensor: Nr:Datum:Temp:Feuchte:Taupunkt:
Aussen-T/F 576 10-08-2017 23:55:00 14.5 C 96 % 13.87 C
577 11-08-2017 00:00:00 14.5 C 96 % 13.87 C
578 11-08-2017 00:05:00 14.5 C 96 % 13.87 C
579 11-08-2017 00:10:00 14.4 C 96 % 13.77 C
580 11-08-2017 00:15:00 14.4 C 96 % 13.77 C
581 11-08-2017 00:20:00 14.4 C 96 % 13.77 C
582 11-08-2017 00:25:00 14.4 C 96 % 13.77 C
583 11-08-2017 00:30:00 14.5 C 96 % 13.87 C
584 11-08-2017 00:35:00 14.5 C 97 % 14.03 C
585 11-08-2017 00:40:00 14.5 C 96 % 13.87 C
586 11-08-2017 00:45:00 14.5 C 97 % 14.03 C
587 11-08-2017 00:50:00 14.5 C 97 % 14.03 C
588 11-08-2017 00:55:00 14.5 C 97 % 14.03 C
589 11-08-2017 01:00:00 14.5 C 97 % 14.03 C
590 11-08-2017 01:05:00 14.5 C 97 % 14.03 C
591 11-08-2017 01:10:00 14.6 C 97 % 14.13 C
592 11-08-2017 01:15:00 14.6 C 97 % 14.13 C
593 11-08-2017 01:20:00 14.5 C 97 % 14.03 C
594 11-08-2017 01:25:00 14.6 C 97 % 14.13 C
595 11-08-2017 01:30:00 14.5 C 97 % 14.03 C
596 11-08-2017 01:35:00 14.6 C 97 % 14.13 C
597 11-08-2017 01:40:00 14.5 C 97 % 14.03 C
598 11-08-2017 01:45:00 14.5 C 97 % 14.03 C
599 11-08-2017 01:50:00 14.5 C 97 % 14.03 C
600 11-08-2017 01:55:00 14.5 C 97 % 14.03 C
Sensor: Nr:Datum:Temp:Feuchte:Taupunkt:
Aussen-T/F 601 11-08-2017 02:00:00 14.5 C 97 % 14.03 C
602 11-08-2017 02:05:00 14.5 C 97 % 14.03 C
603 11-08-2017 02:10:00 14.5 C 97 % 14.03 C
604 11-08-2017 02:15:00 14.5 C 97 % 14.03 C
605 11-08-2017 02:20:00 14.5 C 97 % 14.03 C
606 11-08-2017 02:25:00 14.6 C 97 % 14.13 C
607 11-08-2017 02:30:00 14.6 C 97 % 14.13 C
608 11-08-2017 02:35:00 14.6 C 97 % 14.13 C
609 11-08-2017 02:40:00 14.6 C 97 % 14.13 C
610 11-08-2017 02:45:00 14.6 C 97 % 14.13 C
611 11-08-2017 02:50:00 14.6 C 97 % 14.13 C
612 11-08-2017 02:55:00 14.6 C 97 % 14.13 C
613 11-08-2017 03:00:00 14.6 C 97 % 14.13 C
614 11-08-2017 03:05:00 14.6 C 97 % 14.13 C
615 11-08-2017 03:10:00 14.5 C 97 % 14.03 C
616 11-08-2017 03:15:00 14.5 C 97 % 14.03 C
617 11-08-2017 03:20:00 14.5 C 97 % 14.03 C
618 11-08-2017 03:25:00 14.5 C 97 % 14.03 C
619 11-08-2017 03:30:00 14.5 C 97 % 14.03 C
620 11-08-2017 03:35:00 14.5 C 97 % 14.03 C
621 11-08-2017 03:40:00 14.4 C 97 % 13.93 C
622 11-08-2017 03:45:00 14.4 C 97 % 13.93 C
623 11-08-2017 03:50:00 14.4 C 97 % 13.93 C
624 11-08-2017 03:55:00 14.4 C 97 % 13.93 C
625 11-08-2017 04:00:00 14.3 C 97 % 13.83 C
Sensor: Nr:Datum:Temp:Feuchte:Taupunkt:
Aussen-T/F 626 11-08-2017 04:05:00 14.3 C 97 % 13.83 C
627 11-08-2017 04:10:00 14.3 C 97 % 13.83 C
628 11-08-2017 04:15:00 14.2 C 97 % 13.73 C
629 11-08-2017 04:20:00 14.2 C 97 % 13.73 C
630 11-08-2017 04:25:00 14.2 C 97 % 13.73 C
631 11-08-2017 04:30:00 14.2 C 97 % 13.73 C
632 11-08-2017 04:35:00 14.2 C 97 % 13.73 C
633 11-08-2017 04:40:00 14.2 C 97 % 13.73 C
634 11-08-2017 04:45:00 14.2 C 97 % 13.73 C
635 11-08-2017 04:50:00 14.3 C 97 % 13.83 C
636 11-08-2017 04:55:00 14.3 C 97 % 13.83 C
637 11-08-2017 05:00:00 14.3 C 97 % 13.83 C
638 11-08-2017 05:05:00 14.3 C 97 % 13.83 C
639 11-08-2017 05:10:00 14.4 C 97 % 13.93 C
640 11-08-2017 05:15:00 14.4 C 97 % 13.93 C
641 11-08-2017 05:20:00 14.4 C 97 % 13.93 C
642 11-08-2017 05:25:00 14.4 C 97 % 13.93 C
643 11-08-2017 05:30:00 14.4 C 97 % 13.93 C
644 11-08-2017 05:35:00 14.4 C 97 % 13.93 C
645 11-08-2017 05:40:00 14.4 C 97 % 13.93 C
646 11-08-2017 05:45:00 14.4 C 97 % 13.93 C
647 11-08-2017 05:50:00 14.4 C 97 % 13.93 C
648 11-08-2017 05:55:00 14.4 C 97 % 13.93 C
649 11-08-2017 06:00:00 14.4 C 97 % 13.93 C
650 11-08-2017 06:05:00 14.4 C 97 % 13.93 C
Sensor: Nr:Datum:Temp:Feuchte:Taupunkt:
Aussen-T/F 651 11-08-2017 06:10:00 14.4 C 97 % 13.93 C
652 11-08-2017 06:15:00 14.4 C 97 % 13.93 C
653 11-08-2017 06:20:00 14.4 C 97 % 13.93 C
654 11-08-2017 06:25:00 14.5 C 97 % 14.03 C
655 11-08-2017 06:30:00 14.5 C 97 % 14.03 C
656 11-08-2017 06:35:00 14.5 C 97 % 14.03 C
657 11-08-2017 06:40:00 14.6 C 97 % 14.13 C
658 11-08-2017 06:45:00 14.6 C 97 % 14.13 C
659 11-08-2017 06:50:00 14.6 C 97 % 14.13 C
660 11-08-2017 06:55:00 14.6 C 97 % 14.13 C
661 11-08-2017 07:00:00 14.5 C 97 % 14.03 C
662 11-08-2017 07:05:00 14.5 C 97 % 14.03 C
663 11-08-2017 07:10:00 14.5 C 97 % 14.03 C
664 11-08-2017 07:15:00 14.4 C 97 % 13.93 C
665 11-08-2017 07:20:00 14.4 C 97 % 13.93 C
666 11-08-2017 07:25:00 14.4 C 97 % 13.93 C
667 11-08-2017 07:30:00 14.4 C 97 % 13.93 C
668 11-08-2017 07:35:00 14.4 C 97 % 13.93 C
669 11-08-2017 07:40:00 14.4 C 97 % 13.93 C
670 11-08-2017 07:45:00 14.4 C 97 % 13.93 C
671 11-08-2017 07:50:00 14.4 C 97 % 13.93 C
672 11-08-2017 07:55:00 14.4 C 97 % 13.93 C
673 11-08-2017 08:00:00 14.5 C 97 % 14.03 C
674 11-08-2017 08:05:00 14.5 C 97 % 14.03 C
675 11-08-2017 08:10:00 14.5 C 97 % 14.03 C
Sensor: Nr:Datum:Temp:Feuchte:Taupunkt:
Aussen-T/F 676 11-08-2017 08:15:00 14.5 C 97 % 14.03 C
677 11-08-2017 08:20:00 14.5 C 97 % 14.03 C
678 11-08-2017 08:25:00 14.5 C 97 % 14.03 C
679 11-08-2017 08:30:00 14.6 C 97 % 14.13 C
680 11-08-2017 08:35:00 14.6 C 97 % 14.13 C
681 11-08-2017 08:40:00 14.6 C 97 % 14.13 C
682 11-08-2017 08:45:00 14.6 C 97 % 14.13 C
683 11-08-2017 08:50:00 14.6 C 97 % 14.13 C
684 11-08-2017 08:55:00 14.6 C 97 % 14.13 C
685 11-08-2017 09:00:00 14.6 C 97 % 14.13 C
686 11-08-2017 09:05:00 14.6 C 97 % 14.13 C
687 11-08-2017 09:10:00 14.6 C 97 % 14.13 C
688 11-08-2017 09:15:00 14.6 C 97 % 14.13 C
689 11-08-2017 09:20:00 14.6 C 97 % 14.13 C
690 11-08-2017 09:25:00 14.6 C 97 % 14.13 C
691 11-08-2017 09:30:00 14.6 C 97 % 14.13 C
692 11-08-2017 09:35:00 14.6 C 97 % 14.13 C
693 11-08-2017 09:40:00 14.5 C 96 % 13.87 C
694 11-08-2017 09:45:00 14.6 C 96 % 13.97 C
695 11-08-2017 09:50:00 14.6 C 96 % 13.97 C
696 11-08-2017 09:55:00 14.6 C 96 % 13.97 C
697 11-08-2017 10:00:00 14.7 C 96 % 14.07 C
698 11-08-2017 10:05:00 14.8 C 96 % 14.17 C
699 11-08-2017 10:10:00 14.9 C 97 % 14.43 C
700 11-08-2017 10:15:00 15.1 C 97 % 14.63 C
Sensor: Nr:Datum:Temp:Feuchte:Taupunkt:
Aussen-T/F 701 11-08-2017 10:20:00 15.2 C 97 % 14.73 C
702 11-08-2017 10:25:00 15.2 C 97 % 14.73 C
703 11-08-2017 10:30:00 15.3 C 97 % 14.83 C
704 11-08-2017 10:35:00 15.3 C 96 % 14.67 C
705 11-08-2017 10:40:00 15.2 C 96 % 14.57 C
706 11-08-2017 10:45:00 15.2 C 96 % 14.57 C
707 11-08-2017 10:50:00 15.3 C 96 % 14.67 C
708 11-08-2017 10:55:00 15.4 C 96 % 14.77 C
709 11-08-2017 11:00:00 15.4 C 96 % 14.77 C
710 11-08-2017 11:05:00 15.3 C 95 % 14.5 C
711 11-08-2017 11:10:00 15.3 C 95 % 14.5 C
712 11-08-2017 11:15:00 15.3 C 95 % 14.5 C
713 11-08-2017 11:20:00 15.4 C 95 % 14.6 C
714 11-08-2017 11:25:00 15.5 C 95 % 14.7 C
715 11-08-2017 11:30:00 15.6 C 95 % 14.8 C
716 11-08-2017 11:35:00 15.6 C 95 % 14.8 C
717 11-08-2017 11:40:00 15.6 C 94 % 14.64 C
718 11-08-2017 11:45:00 15.6 C 94 % 14.64 C
719 11-08-2017 11:50:00 15.6 C 94 % 14.64 C
720 11-08-2017 11:55:00 15.6 C 94 % 14.64 C
721 11-08-2017 12:00:00 15.6 C 94 % 14.64 C
722 11-08-2017 12:05:00 15.7 C 94 % 14.74 C
723 11-08-2017 12:10:00 15.7 C 94 % 14.74 C
724 11-08-2017 12:15:00 15.7 C 94 % 14.74 C
725 11-08-2017 12:20:00 15.7 C 94 % 14.74 C
Sensor: Nr:Datum:Temp:Feuchte:Taupunkt:
Aussen-T/F 726 11-08-2017 12:25:00 15.7 C 94 % 14.74 C
727 11-08-2017 12:30:00 15.7 C 94 % 14.74 C
728 11-08-2017 12:35:00 15.7 C 94 % 14.74 C
729 11-08-2017 12:40:00 15.6 C 94 % 14.64 C
730 11-08-2017 12:45:00 15.7 C 95 % 14.9 C
731 11-08-2017 12:50:00 15.7 C 95 % 14.9 C
732 11-08-2017 12:55:00 15.6 C 94 % 14.64 C
733 11-08-2017 13:00:00 15.6 C 94 % 14.64 C
734 11-08-2017 13:05:00 15.7 C 94 % 14.74 C
735 11-08-2017 13:10:00 15.7 C 94 % 14.74 C
736 11-08-2017 13:15:00 15.8 C 95 % 15 C
737 11-08-2017 13:20:00 15.8 C 94 % 14.84 C
738 11-08-2017 13:25:00 15.8 C 94 % 14.84 C
739 11-08-2017 13:30:00 15.8 C 94 % 14.84 C
740 11-08-2017 13:35:00 15.8 C 93 % 14.67 C
741 11-08-2017 13:40:00 15.8 C 93 % 14.67 C
742 11-08-2017 13:45:00 15.8 C 93 % 14.67 C
743 11-08-2017 13:50:00 15.9 C 93 % 14.77 C
744 11-08-2017 13:55:00 15.9 C 93 % 14.77 C
745 11-08-2017 14:00:00 15.9 C 93 % 14.77 C
746 11-08-2017 14:05:00 16.1 C 93 % 14.97 C
747 11-08-2017 14:10:00 16.1 C 93 % 14.97 C
748 11-08-2017 14:15:00 16.2 C 93 % 15.07 C
749 11-08-2017 14:20:00 16.3 C 92 % 15 C
750 11-08-2017 14:25:00 16.3 C 92 % 15 C
Sensor: Nr:Datum:Temp:Feuchte:Taupunkt:
Aussen-T/F 751 11-08-2017 14:30:00 16.3 C 91 % 14.83 C
752 11-08-2017 14:35:00 16.3 C 91 % 14.83 C
753 11-08-2017 14:40:00 16.3 C 91 % 14.83 C
754 11-08-2017 14:45:00 16.4 C 91 % 14.93 C
755 11-08-2017 14:50:00 16.4 C 91 % 14.93 C
756 11-08-2017 14:55:00 16.5 C 91 % 15.03 C
757 11-08-2017 15:00:00 16.6 C 91 % 15.13 C
758 11-08-2017 15:05:00 16.6 C 90 % 14.95 C
759 11-08-2017 15:10:00 16.6 C 88 % 14.6 C
760 11-08-2017 15:15:00 16.6 C 88 % 14.6 C
761 11-08-2017 15:20:00 16.5 C 88 % 14.51 C
762 11-08-2017 15:25:00 16.4 C 89 % 14.58 C
763 11-08-2017 15:30:00 16.4 C 89 % 14.58 C
764 11-08-2017 15:35:00 16.4 C 88 % 14.41 C
765 11-08-2017 15:40:00 16.4 C 89 % 14.58 C
766 11-08-2017 15:45:00 16.4 C 89 % 14.58 C
767 11-08-2017 15:50:00 16.4 C 89 % 14.58 C
768 11-08-2017 15:55:00 16.4 C 89 % 14.58 C
769 11-08-2017 16:00:00 16.4 C 89 % 14.58 C
770 11-08-2017 16:05:00 16.4 C 90 % 14.76 C
771 11-08-2017 16:10:00 16.4 C 90 % 14.76 C
772 11-08-2017 16:15:00 16.3 C 90 % 14.66 C
773 11-08-2017 16:20:00 16.3 C 91 % 14.83 C
774 11-08-2017 16:25:00 16.2 C 91 % 14.73 C
775 11-08-2017 16:30:00 16.1 C 90 % 14.46 C
Sensor: Nr:Datum:Temp:Feuchte:Taupunkt:
Aussen-T/F 776 11-08-2017 16:35:00 16.1 C 92 % 14.8 C
777 11-08-2017 16:40:00 16.1 C 92 % 14.8 C
778 11-08-2017 16:45:00 16.1 C 92 % 14.8 C
779 11-08-2017 16:50:00 16 C 92 % 14.7 C
780 11-08-2017 16:55:00 15.9 C 92 % 14.6 C
781 11-08-2017 17:00:00 16.1 C 93 % 14.97 C
782 11-08-2017 17:05:00 16.1 C 93 % 14.97 C
783 11-08-2017 17:10:00 16.1 C 93 % 14.97 C
784 11-08-2017 17:15:00 16.1 C 94 % 15.13 C
785 11-08-2017 17:20:00 15.9 C 94 % 14.94 C
786 11-08-2017 17:25:00 15.9 C 94 % 14.94 C
787 11-08-2017 17:30:00 15.9 C 94 % 14.94 C
788 11-08-2017 17:35:00 15.8 C 94 % 14.84 C
789 11-08-2017 17:40:00 15.8 C 94 % 14.84 C
790 11-08-2017 17:45:00 15.8 C 94 % 14.84 C
791 11-08-2017 17:50:00 15.8 C 94 % 14.84 C
792 11-08-2017 17:55:00 15.8 C 94 % 14.84 C
793 11-08-2017 18:00:00 15.7 C 94 % 14.74 C
794 11-08-2017 18:05:00 15.7 C 95 % 14.9 C
795 11-08-2017 18:10:00 15.6 C 94 % 14.64 C
796 11-08-2017 18:15:00 15.5 C 94 % 14.54 C
797 11-08-2017 18:20:00 15.5 C 95 % 14.7 C
798 11-08-2017 18:25:00 15.4 C 95 % 14.6 C
799 11-08-2017 18:30:00 15.3 C 95 % 14.5 C
800 11-08-2017 18:35:00 15.3 C 95 % 14.5 C
Sensor: Nr:Datum:Temp:Feuchte:Taupunkt:
Aussen-T/F 801 11-08-2017 18:40:00 15.3 C 95 % 14.5 C
802 11-08-2017 18:45:00 15.2 C 95 % 14.4 C
803 11-08-2017 18:50:00 15.2 C 95 % 14.4 C
804 11-08-2017 18:55:00 15.2 C 95 % 14.4 C
805 11-08-2017 19:00:00 15.2 C 95 % 14.4 C
806 11-08-2017 19:05:00 15.1 C 95 % 14.31 C
807 11-08-2017 19:10:00 15.1 C 95 % 14.31 C
808 11-08-2017 19:15:00 15.1 C 95 % 14.31 C
809 11-08-2017 19:20:00 15.1 C 95 % 14.31 C
810 11-08-2017 19:25:00 15.1 C 95 % 14.31 C
811 11-08-2017 19:30:00 15 C 96 % 14.37 C
812 11-08-2017 19:35:00 15 C 96 % 14.37 C
813 11-08-2017 19:40:00 15 C 95 % 14.21 C
814 11-08-2017 19:45:00 14.9 C 95 % 14.11 C
815 11-08-2017 19:50:00 14.9 C 96 % 14.27 C
816 11-08-2017 19:55:00 14.9 C 96 % 14.27 C
817 11-08-2017 20:00:00 14.9 C 96 % 14.27 C
818 11-08-2017 20:05:00 14.8 C 96 % 14.17 C
819 11-08-2017 20:10:00 14.8 C 96 % 14.17 C
820 11-08-2017 20:15:00 14.8 C 96 % 14.17 C
821 11-08-2017 20:20:00 14.8 C 96 % 14.17 C
822 11-08-2017 20:25:00 14.7 C 96 % 14.07 C
823 11-08-2017 20:30:00 14.7 C 96 % 14.07 C
824 11-08-2017 20:35:00 14.6 C 96 % 13.97 C
825 11-08-2017 20:40:00 14.6 C 96 % 13.97 C
Sensor: Nr:Datum:Temp:Feuchte:Taupunkt:
Aussen-T/F 826 11-08-2017 20:45:00 14.6 C 96 % 13.97 C
827 11-08-2017 20:50:00 14.5 C 96 % 13.87 C
828 11-08-2017 20:55:00 14.5 C 96 % 13.87 C
829 11-08-2017 21:00:00 14.5 C 96 % 13.87 C
830 11-08-2017 21:05:00 14.5 C 96 % 13.87 C
831 11-08-2017 21:10:00 14.4 C 96 % 13.77 C
832 11-08-2017 21:15:00 14.4 C 96 % 13.77 C
833 11-08-2017 21:20:00 14.4 C 96 % 13.77 C
834 11-08-2017 21:25:00 14.4 C 96 % 13.77 C
835 11-08-2017 21:30:00 14.4 C 96 % 13.77 C
836 11-08-2017 21:35:00 14.4 C 96 % 13.77 C
837 11-08-2017 21:40:00 14.3 C 96 % 13.67 C
838 11-08-2017 21:45:00 14.3 C 96 % 13.67 C
839 11-08-2017 21:50:00 14.3 C 96 % 13.67 C
840 11-08-2017 21:55:00 14.3 C 96 % 13.67 C
841 11-08-2017 22:00:00 14.3 C 96 % 13.67 C
842 11-08-2017 22:05:00 14.3 C 96 % 13.67 C
843 11-08-2017 22:10:00 14.3 C 97 % 13.83 C
844 11-08-2017 22:15:00 14.3 C 97 % 13.83 C
845 11-08-2017 22:20:00 14.3 C 97 % 13.83 C
846 11-08-2017 22:25:00 14.3 C 97 % 13.83 C
847 11-08-2017 22:30:00 14.3 C 97 % 13.83 C
848 11-08-2017 22:35:00 14.3 C 97 % 13.83 C
849 11-08-2017 22:40:00 14.3 C 97 % 13.83 C
850 11-08-2017 22:45:00 14.3 C 97 % 13.83 C
Sensor: Nr:Datum:Temp:Feuchte:Taupunkt:
Aussen-T/F 851 11-08-2017 22:50:00 14.3 C 97 % 13.83 C
852 11-08-2017 22:55:00 14.3 C 97 % 13.83 C
853 11-08-2017 23:00:00 14.3 C 97 % 13.83 C
854 11-08-2017 23:05:00 14.3 C 97 % 13.83 C
855 11-08-2017 23:10:00 14.3 C 97 % 13.83 C
856 11-08-2017 23:15:00 14.3 C 97 % 13.83 C
857 11-08-2017 23:20:00 14.3 C 97 % 13.83 C
858 11-08-2017 23:25:00 14.4 C 97 % 13.93 C
859 11-08-2017 23:30:00 14.4 C 97 % 13.93 C
860 11-08-2017 23:35:00 14.4 C 97 % 13.93 C
861 11-08-2017 23:40:00 14.4 C 97 % 13.93 C
862 11-08-2017 23:45:00 14.4 C 97 % 13.93 C
863 11-08-2017 23:50:00 14.4 C 97 % 13.93 C
864 11-08-2017 23:55:00 14.4 C 97 % 13.93 C
865 12-08-2017 00:00:00 14.4 C 97 % 13.93 C
866 12-08-2017 00:05:00 14.3 C 97 % 13.83 C
867 12-08-2017 00:10:00 14.2 C 97 % 13.73 C
868 12-08-2017 00:15:00 14.1 C 97 % 13.63 C
869 12-08-2017 00:20:00 14.1 C 97 % 13.63 C
870 12-08-2017 00:25:00 14 C 97 % 13.53 C
871 12-08-2017 00:30:00 14 C 97 % 13.53 C
872 12-08-2017 00:35:00 14.1 C 97 % 13.63 C
873 12-08-2017 00:40:00 14.1 C 97 % 13.63 C
874 12-08-2017 00:45:00 14.1 C 97 % 13.63 C
875 12-08-2017 00:50:00 14.2 C 97 % 13.73 C
Sensor: Nr:Datum:Temp:Feuchte:Taupunkt:
Aussen-T/F 876 12-08-2017 00:55:00 14.2 C 97 % 13.73 C
877 12-08-2017 01:00:00 14.2 C 97 % 13.73 C
878 12-08-2017 01:05:00 14.3 C 97 % 13.83 C
879 12-08-2017 01:10:00 14.3 C 97 % 13.83 C
880 12-08-2017 01:15:00 14.4 C 97 % 13.93 C
881 12-08-2017 01:20:00 14.4 C 97 % 13.93 C
882 12-08-2017 01:25:00 14.4 C 97 % 13.93 C
883 12-08-2017 01:30:00 14.4 C 97 % 13.93 C
884 12-08-2017 01:35:00 14.4 C 97 % 13.93 C
885 12-08-2017 01:40:00 14.4 C 97 % 13.93 C
886 12-08-2017 01:45:00 14.4 C 97 % 13.93 C
887 12-08-2017 01:50:00 14.4 C 97 % 13.93 C
888 12-08-2017 01:55:00 14.4 C 97 % 13.93 C
889 12-08-2017 02:00:00 14.4 C 97 % 13.93 C
890 12-08-2017 02:05:00 14.4 C 97 % 13.93 C
891 12-08-2017 02:10:00 14.3 C 97 % 13.83 C
892 12-08-2017 02:15:00 14.3 C 97 % 13.83 C
893 12-08-2017 02:20:00 14.3 C 97 % 13.83 C
894 12-08-2017 02:25:00 14.3 C 97 % 13.83 C
895 12-08-2017 02:30:00 14.3 C 97 % 13.83 C
896 12-08-2017 02:35:00 14.2 C 97 % 13.73 C
897 12-08-2017 02:40:00 14.2 C 97 % 13.73 C
898 12-08-2017 02:45:00 14.2 C 97 % 13.73 C
899 12-08-2017 02:50:00 14.2 C 97 % 13.73 C
900 12-08-2017 02:55:00 14.2 C 97 % 13.73 C
Sensor: Nr:Datum:Temp:Feuchte:Taupunkt:
Aussen-T/F 901 12-08-2017 03:00:00 14.2 C 97 % 13.73 C
902 12-08-2017 03:05:00 14.2 C 97 % 13.73 C
903 12-08-2017 03:10:00 14.2 C 97 % 13.73 C
904 12-08-2017 03:15:00 14.2 C 97 % 13.73 C
905 12-08-2017 03:20:00 14.2 C 97 % 13.73 C
906 12-08-2017 03:25:00 14.2 C 97 % 13.73 C
907 12-08-2017 03:30:00 14.2 C 97 % 13.73 C
908 12-08-2017 03:35:00 14.2 C 97 % 13.73 C
909 12-08-2017 03:40:00 14.3 C 97 % 13.83 C
910 12-08-2017 03:45:00 14.3 C 97 % 13.83 C
911 12-08-2017 03:50:00 14.3 C 97 % 13.83 C
912 12-08-2017 03:55:00 14.3 C 97 % 13.83 C
913 12-08-2017 04:00:00 14.3 C 97 % 13.83 C
914 12-08-2017 04:05:00 14.3 C 97 % 13.83 C
915 12-08-2017 04:10:00 14.3 C 97 % 13.83 C
916 12-08-2017 04:15:00 14.3 C 97 % 13.83 C
917 12-08-2017 04:20:00 14.3 C 97 % 13.83 C
918 12-08-2017 04:25:00 14.3 C 97 % 13.83 C
919 12-08-2017 04:30:00 14.3 C 97 % 13.83 C
920 12-08-2017 04:35:00 14.3 C 97 % 13.83 C
921 12-08-2017 04:40:00 14.3 C 97 % 13.83 C
922 12-08-2017 04:45:00 14.3 C 97 % 13.83 C
923 12-08-2017 04:50:00 14.3 C 97 % 13.83 C
924 12-08-2017 04:55:00 14.3 C 97 % 13.83 C
925 12-08-2017 05:00:00 14.2 C 97 % 13.73 C
Sensor: Nr:Datum:Temp:Feuchte:Taupunkt:
Aussen-T/F 926 12-08-2017 05:05:00 14.2 C 97 % 13.73 C
927 12-08-2017 05:10:00 14.2 C 97 % 13.73 C
928 12-08-2017 05:15:00 14.2 C 97 % 13.73 C
929 12-08-2017 05:20:00 14.2 C 97 % 13.73 C
930 12-08-2017 05:25:00 14.2 C 97 % 13.73 C
931 12-08-2017 05:30:00 14.1 C 97 % 13.63 C
932 12-08-2017 05:35:00 14.1 C 97 % 13.63 C
933 12-08-2017 05:40:00 14.1 C 97 % 13.63 C
934 12-08-2017 05:45:00 14.1 C 97 % 13.63 C
935 12-08-2017 05:50:00 14.1 C 97 % 13.63 C
936 12-08-2017 05:55:00 14 C 97 % 13.53 C
937 12-08-2017 06:00:00 14 C 97 % 13.53 C
938 12-08-2017 06:05:00 13.9 C 97 % 13.43 C
939 12-08-2017 06:10:00 13.9 C 97 % 13.43 C
940 12-08-2017 06:15:00 13.9 C 97 % 13.43 C
941 12-08-2017 06:20:00 13.9 C 97 % 13.43 C
942 12-08-2017 06:25:00 13.8 C 97 % 13.33 C
943 12-08-2017 06:30:00 13.8 C 97 % 13.33 C
944 12-08-2017 06:35:00 13.8 C 97 % 13.33 C
945 12-08-2017 06:40:00 13.8 C 97 % 13.33 C
946 12-08-2017 06:45:00 13.8 C 97 % 13.33 C
947 12-08-2017 06:50:00 13.8 C 97 % 13.33 C
948 12-08-2017 06:55:00 13.8 C 97 % 13.33 C
949 12-08-2017 07:00:00 13.8 C 97 % 13.33 C
950 12-08-2017 07:05:00 13.7 C 97 % 13.23 C
Sensor: Nr:Datum:Temp:Feuchte:Taupunkt:
Aussen-T/F 951 12-08-2017 07:10:00 13.7 C 97 % 13.23 C
952 12-08-2017 07:15:00 13.7 C 97 % 13.23 C
953 12-08-2017 07:20:00 13.6 C 97 % 13.13 C
954 12-08-2017 07:25:00 13.6 C 97 % 13.13 C
955 12-08-2017 07:30:00 13.5 C 97 % 13.03 C
956 12-08-2017 07:35:00 13.5 C 97 % 13.03 C
957 12-08-2017 07:40:00 13.5 C 97 % 13.03 C
958 12-08-2017 07:45:00 13.5 C 97 % 13.03 C
959 12-08-2017 07:50:00 13.5 C 97 % 13.03 C
960 12-08-2017 07:55:00 13.5 C 97 % 13.03 C
961 12-08-2017 08:00:00 13.6 C 97 % 13.13 C
962 12-08-2017 08:05:00 13.6 C 97 % 13.13 C
963 12-08-2017 08:10:00 13.6 C 97 % 13.13 C
964 12-08-2017 08:15:00 13.6 C 97 % 13.13 C
965 12-08-2017 08:20:00 13.5 C 97 % 13.03 C
966 12-08-2017 08:25:00 13.5 C 97 % 13.03 C
967 12-08-2017 08:30:00 13.5 C 97 % 13.03 C
968 12-08-2017 08:35:00 13.5 C 97 % 13.03 C
969 12-08-2017 08:40:00 13.5 C 97 % 13.03 C
970 12-08-2017 08:45:00 13.6 C 97 % 13.13 C
971 12-08-2017 08:50:00 13.6 C 97 % 13.13 C
972 12-08-2017 08:55:00 13.7 C 97 % 13.23 C
973 12-08-2017 09:00:00 13.8 C 97 % 13.33 C
974 12-08-2017 09:05:00 13.8 C 97 % 13.33 C
975 12-08-2017 09:10:00 13.9 C 98 % 13.59 C
Sensor: Nr:Datum:Temp:Feuchte:Taupunkt:
Aussen-T/F 976 12-08-2017 09:15:00 14.2 C 97 % 13.73 C
977 12-08-2017 09:20:00 14.2 C 97 % 13.73 C
978 12-08-2017 09:25:00 14.1 C 97 % 13.63 C
979 12-08-2017 09:30:00 14.1 C 97 % 13.63 C
980 12-08-2017 09:35:00 14 C 97 % 13.53 C
981 12-08-2017 09:40:00 14 C 97 % 13.53 C
982 12-08-2017 09:45:00 14.1 C 97 % 13.63 C
983 12-08-2017 09:50:00 14.1 C 97 % 13.63 C
984 12-08-2017 09:55:00 14.1 C 97 % 13.63 C
985 12-08-2017 10:00:00 14.2 C 97 % 13.73 C
986 12-08-2017 10:05:00 14.3 C 96 % 13.67 C
987 12-08-2017 10:10:00 14.3 C 96 % 13.67 C
988 12-08-2017 10:15:00 14.3 C 96 % 13.67 C
989 12-08-2017 10:20:00 14.4 C 96 % 13.77 C
990 12-08-2017 10:25:00 14.4 C 96 % 13.77 C
991 12-08-2017 10:30:00 14.4 C 95 % 13.61 C
992 12-08-2017 10:35:00 14.6 C 95 % 13.81 C
993 12-08-2017 10:40:00 14.6 C 95 % 13.81 C
994 12-08-2017 10:45:00 14.7 C 95 % 13.91 C
995 12-08-2017 10:50:00 14.8 C 94 % 13.84 C
996 12-08-2017 10:55:00 14.9 C 94 % 13.94 C
997 12-08-2017 11:00:00 15 C 94 % 14.04 C
998 12-08-2017 11:05:00 15.1 C 94 % 14.14 C
999 12-08-2017 11:10:00 15.2 C 93 % 14.08 C
1000 12-08-2017 11:15:00 15.3 C 94 % 14.34 C
Sensor: Nr:Datum:Temp:Feuchte:Taupunkt:
Aussen-T/F 1001 12-08-2017 11:20:00 15.4 C 94 % 14.44 C
1002 12-08-2017 11:25:00 15.4 C 93 % 14.27 C
1003 12-08-2017 11:30:00 15.5 C 94 % 14.54 C
1004 12-08-2017 11:35:00 15.6 C 94 % 14.64 C
1005 12-08-2017 11:40:00 15.6 C 94 % 14.64 C
1006 12-08-2017 11:45:00 15.7 C 94 % 14.74 C
1007 12-08-2017 11:50:00 15.6 C 94 % 14.64 C
1008 12-08-2017 11:55:00 15.6 C 94 % 14.64 C
1009 12-08-2017 12:00:00 15.6 C 94 % 14.64 C
1010 12-08-2017 12:05:00 15.7 C 95 % 14.9 C
1011 12-08-2017 12:10:00 15.7 C 94 % 14.74 C
1012 12-08-2017 12:15:00 15.7 C 94 % 14.74 C
1013 12-08-2017 12:20:00 15.6 C 93 % 14.47 C
1014 12-08-2017 12:25:00 15.6 C 94 % 14.64 C
1015 12-08-2017 12:30:00 15.6 C 93 % 14.47 C
1016 12-08-2017 12:35:00 15.5 C 93 % 14.37 C
1017 12-08-2017 12:40:00 15.5 C 93 % 14.37 C
1018 12-08-2017 12:45:00 15.4 C 93 % 14.27 C
1019 12-08-2017 12:50:00 15.4 C 93 % 14.27 C
1020 12-08-2017 12:55:00 15.5 C 93 % 14.37 C
1021 12-08-2017 13:00:00 15.4 C 93 % 14.27 C
1022 12-08-2017 13:05:00 15.4 C 93 % 14.27 C
1023 12-08-2017 13:10:00 15.6 C 93 % 14.47 C
1024 12-08-2017 13:15:00 15.7 C 92 % 14.4 C
1025 12-08-2017 13:20:00 15.8 C 92 % 14.5 C
Sensor: Nr:Datum:Temp:Feuchte:Taupunkt:
Aussen-T/F 1026 12-08-2017 13:25:00 15.9 C 92 % 14.6 C
1027 12-08-2017 13:30:00 15.9 C 92 % 14.6 C
1028 12-08-2017 13:35:00 15.9 C 92 % 14.6 C
1029 12-08-2017 13:40:00 15.9 C 92 % 14.6 C
1030 12-08-2017 13:45:00 15.9 C 92 % 14.6 C
1031 12-08-2017 13:50:00 16 C 92 % 14.7 C
1032 12-08-2017 13:55:00 16.2 C 92 % 14.9 C
1033 12-08-2017 14:00:00 16.2 C 91 % 14.73 C
1034 12-08-2017 14:05:00 16.3 C 91 % 14.83 C
1035 12-08-2017 14:10:00 16.3 C 90 % 14.66 C
1036 12-08-2017 14:15:00 16.4 C 91 % 14.93 C
1037 12-08-2017 14:20:00 16.4 C 91 % 14.93 C
1038 12-08-2017 14:25:00 16.3 C 90 % 14.66 C
1039 12-08-2017 14:30:00 16.3 C 91 % 14.83 C
1040 12-08-2017 14:35:00 16.3 C 91 % 14.83 C
1041 12-08-2017 14:40:00 16.3 C 91 % 14.83 C
1042 12-08-2017 14:45:00 16.4 C 92 % 15.1 C
1043 12-08-2017 14:50:00 16.4 C 92 % 15.1 C
1044 12-08-2017 14:55:00 16.4 C 92 % 15.1 C
1045 12-08-2017 15:00:00 16.4 C 92 % 15.1 C
1046 12-08-2017 15:05:00 16.4 C 92 % 15.1 C
1047 12-08-2017 15:10:00 16.4 C 92 % 15.1 C
1048 12-08-2017 15:15:00 16.5 C 93 % 15.36 C
1049 12-08-2017 15:20:00 16.6 C 93 % 15.46 C
1050 12-08-2017 15:25:00 16.6 C 92 % 15.3 C
Sensor: Nr:Datum:Temp:Feuchte:Taupunkt:
Aussen-T/F 1051 12-08-2017 15:30:00 16.7 C 92 % 15.39 C
1052 12-08-2017 15:35:00 16.7 C 92 % 15.39 C
1053 12-08-2017 15:40:00 16.7 C 92 % 15.39 C
1054 12-08-2017 15:45:00 16.7 C 91 % 15.22 C
1055 12-08-2017 15:50:00 16.7 C 91 % 15.22 C
1056 12-08-2017 15:55:00 16.6 C 92 % 15.3 C
1057 12-08-2017 16:00:00 16.7 C 92 % 15.39 C
1058 12-08-2017 16:05:00 16.7 C 93 % 15.56 C
1059 12-08-2017 16:10:00 16.8 C 93 % 15.66 C
1060 12-08-2017 16:15:00 16.8 C 93 % 15.66 C
1061 12-08-2017 16:20:00 16.7 C 93 % 15.56 C
1062 12-08-2017 16:25:00 16.6 C 93 % 15.46 C
1063 12-08-2017 16:30:00 16.7 C 93 % 15.56 C
1064 12-08-2017 16:35:00 16.7 C 93 % 15.56 C
1065 12-08-2017 16:40:00 16.7 C 93 % 15.56 C
1066 12-08-2017 16:45:00 16.7 C 93 % 15.56 C
1067 12-08-2017 16:50:00 16.8 C 93 % 15.66 C
1068 12-08-2017 16:55:00 16.8 C 93 % 15.66 C
1069 12-08-2017 17:00:00 16.7 C 92 % 15.39 C
1070 12-08-2017 17:05:00 16.8 C 93 % 15.66 C
1071 12-08-2017 17:10:00 16.8 C 93 % 15.66 C
1072 12-08-2017 17:15:00 17 C 93 % 15.86 C
1073 12-08-2017 17:20:00 17.1 C 93 % 15.96 C
1074 12-08-2017 17:25:00 17.1 C 93 % 15.96 C
1075 12-08-2017 17:30:00 17.1 C 93 % 15.96 C
Sensor: Nr:Datum:Temp:Feuchte:Taupunkt:
Aussen-T/F 1076 12-08-2017 17:35:00 17.2 C 92 % 15.89 C
1077 12-08-2017 17:40:00 17.2 C 92 % 15.89 C
1078 12-08-2017 17:45:00 17.3 C 92 % 15.99 C
1079 12-08-2017 17:50:00 17.3 C 91 % 15.82 C
1080 12-08-2017 17:55:00 17.4 C 91 % 15.92 C
1081 12-08-2017 18:00:00 17.4 C 91 % 15.92 C
1082 12-08-2017 18:05:00 17.3 C 90 % 15.64 C
1083 12-08-2017 18:10:00 17.3 C 91 % 15.82 C
1084 12-08-2017 18:15:00 17.3 C 90 % 15.64 C
1085 12-08-2017 18:20:00 17.3 C 91 % 15.82 C
1086 12-08-2017 18:25:00 17.3 C 91 % 15.82 C
1087 12-08-2017 18:30:00 17.3 C 91 % 15.82 C
1088 12-08-2017 18:35:00 17.3 C 91 % 15.82 C
1089 12-08-2017 18:40:00 17.3 C 91 % 15.82 C
1090 12-08-2017 18:45:00 17.3 C 91 % 15.82 C
1091 12-08-2017 18:50:00 17.2 C 91 % 15.72 C
1092 12-08-2017 18:55:00 17.1 C 91 % 15.62 C
1093 12-08-2017 19:00:00 17.1 C 91 % 15.62 C
1094 12-08-2017 19:05:00 17.1 C 92 % 15.79 C
1095 12-08-2017 19:10:00 17.1 C 91 % 15.62 C
1096 12-08-2017 19:15:00 17.1 C 92 % 15.79 C
1097 12-08-2017 19:20:00 17.1 C 92 % 15.79 C
1098 12-08-2017 19:25:00 17.2 C 91 % 15.72 C
1099 12-08-2017 19:30:00 17.2 C 91 % 15.72 C
1100 12-08-2017 19:35:00 17.2 C 91 % 15.72 C
Sensor: Nr:Datum:Temp:Feuchte:Taupunkt:
Aussen-T/F 1101 12-08-2017 19:40:00 17.2 C 91 % 15.72 C
1102 12-08-2017 19:45:00 17.2 C 91 % 15.72 C
1103 12-08-2017 19:50:00 17.1 C 91 % 15.62 C
1104 12-08-2017 19:55:00 17.1 C 91 % 15.62 C
1105 12-08-2017 20:00:00 16.9 C 91 % 15.42 C
1106 12-08-2017 20:05:00 16.9 C 92 % 15.59 C
1107 12-08-2017 20:10:00 16.9 C 92 % 15.59 C
1108 12-08-2017 20:15:00 16.8 C 92 % 15.49 C
1109 12-08-2017 20:20:00 16.8 C 92 % 15.49 C
1110 12-08-2017 20:25:00 16.8 C 92 % 15.49 C
1111 12-08-2017 20:30:00 16.8 C 92 % 15.49 C
1112 12-08-2017 20:35:00 16.8 C 92 % 15.49 C
1113 12-08-2017 20:40:00 16.8 C 92 % 15.49 C
1114 12-08-2017 20:45:00 16.7 C 92 % 15.39 C
1115 12-08-2017 20:50:00 16.7 C 92 % 15.39 C
1116 12-08-2017 20:55:00 16.7 C 92 % 15.39 C
1117 12-08-2017 21:00:00 16.6 C 92 % 15.3 C
1118 12-08-2017 21:05:00 16.6 C 93 % 15.46 C
1119 12-08-2017 21:10:00 16.7 C 93 % 15.56 C
1120 12-08-2017 21:15:00 16.7 C 92 % 15.39 C
1121 12-08-2017 21:20:00 16.7 C 92 % 15.39 C
1122 12-08-2017 21:25:00 16.8 C 92 % 15.49 C
1123 12-08-2017 21:30:00 16.8 C 92 % 15.49 C
1124 12-08-2017 21:35:00 16.8 C 92 % 15.49 C
1125 12-08-2017 21:40:00 16.8 C 92 % 15.49 C
Sensor: Nr:Datum:Temp:Feuchte:Taupunkt:
Aussen-T/F 1126 12-08-2017 21:45:00 16.8 C 93 % 15.66 C
1127 12-08-2017 21:50:00 16.8 C 93 % 15.66 C
1128 12-08-2017 21:55:00 16.8 C 93 % 15.66 C
1129 12-08-2017 22:00:00 16.7 C 93 % 15.56 C
1130 12-08-2017 22:05:00 16.7 C 93 % 15.56 C
1131 12-08-2017 22:10:00 16.7 C 93 % 15.56 C
1132 12-08-2017 22:15:00 16.7 C 93 % 15.56 C
1133 12-08-2017 22:20:00 16.7 C 93 % 15.56 C
1134 12-08-2017 22:25:00 16.6 C 93 % 15.46 C
1135 12-08-2017 22:30:00 16.6 C 94 % 15.63 C
1136 12-08-2017 22:35:00 16.6 C 93 % 15.46 C
1137 12-08-2017 22:40:00 16.6 C 94 % 15.63 C
1138 12-08-2017 22:45:00 16.6 C 94 % 15.63 C
1139 12-08-2017 22:50:00 16.6 C 94 % 15.63 C
1140 12-08-2017 22:55:00 16.5 C 94 % 15.53 C
1141 12-08-2017 23:00:00 16.5 C 94 % 15.53 C
1142 12-08-2017 23:05:00 16.4 C 94 % 15.43 C
1143 12-08-2017 23:10:00 16.4 C 94 % 15.43 C
1144 12-08-2017 23:15:00 16.4 C 94 % 15.43 C
1145 12-08-2017 23:20:00 16.4 C 94 % 15.43 C
1146 12-08-2017 23:25:00 16.4 C 94 % 15.43 C
1147 12-08-2017 23:30:00 16.5 C 94 % 15.53 C
1148 12-08-2017 23:35:00 16.5 C 94 % 15.53 C
1149 12-08-2017 23:40:00 16.5 C 94 % 15.53 C
1150 12-08-2017 23:45:00 16.6 C 94 % 15.63 C
Sensor: Nr:Datum:Temp:Feuchte:Taupunkt:
Aussen-T/F 1151 12-08-2017 23:50:00 16.6 C 94 % 15.63 C
1152 12-08-2017 23:55:00 16.6 C 94 % 15.63 C
1153 13-08-2017 00:00:00 16.6 C 94 % 15.63 C
1154 13-08-2017 00:05:00 16.6 C 94 % 15.63 C
1155 13-08-2017 00:10:00 16.6 C 94 % 15.63 C
1156 13-08-2017 00:15:00 16.6 C 94 % 15.63 C
1157 13-08-2017 00:20:00 16.5 C 94 % 15.53 C
1158 13-08-2017 00:25:00 16.5 C 94 % 15.53 C
1159 13-08-2017 00:30:00 16.6 C 94 % 15.63 C
1160 13-08-2017 00:35:00 16.6 C 94 % 15.63 C
1161 13-08-2017 00:40:00 16.6 C 94 % 15.63 C
1162 13-08-2017 00:45:00 16.5 C 95 % 15.7 C
1163 13-08-2017 00:50:00 16.5 C 95 % 15.7 C
1164 13-08-2017 00:55:00 16.5 C 95 % 15.7 C
1165 13-08-2017 01:00:00 16.5 C 95 % 15.7 C
1166 13-08-2017 01:05:00 16.5 C 95 % 15.7 C
1167 13-08-2017 01:10:00 16.5 C 95 % 15.7 C
1168 13-08-2017 01:15:00 16.5 C 95 % 15.7 C
1169 13-08-2017 01:20:00 16.5 C 95 % 15.7 C
1170 13-08-2017 01:25:00 16.6 C 95 % 15.8 C
1171 13-08-2017 01:30:00 16.6 C 95 % 15.8 C
1172 13-08-2017 01:35:00 16.6 C 94 % 15.63 C
1173 13-08-2017 01:40:00 16.7 C 94 % 15.73 C
1174 13-08-2017 01:45:00 16.7 C 94 % 15.73 C
1175 13-08-2017 01:50:00 16.6 C 94 % 15.63 C
Sensor: Nr:Datum:Temp:Feuchte:Taupunkt:
Aussen-T/F 1176 13-08-2017 01:55:00 16.7 C 94 % 15.73 C
1177 13-08-2017 02:00:00 16.7 C 94 % 15.73 C
1178 13-08-2017 02:05:00 16.7 C 94 % 15.73 C
1179 13-08-2017 02:10:00 16.6 C 94 % 15.63 C
1180 13-08-2017 02:15:00 16.6 C 94 % 15.63 C
1181 13-08-2017 02:20:00 16.6 C 94 % 15.63 C
1182 13-08-2017 02:25:00 16.6 C 94 % 15.63 C
1183 13-08-2017 02:30:00 16.6 C 94 % 15.63 C
1184 13-08-2017 02:35:00 16.6 C 94 % 15.63 C
1185 13-08-2017 02:40:00 16.6 C 94 % 15.63 C
1186 13-08-2017 02:45:00 16.6 C 94 % 15.63 C
1187 13-08-2017 02:50:00 16.6 C 94 % 15.63 C
1188 13-08-2017 02:55:00 16.6 C 95 % 15.8 C
1189 13-08-2017 03:00:00 16.6 C 95 % 15.8 C
1190 13-08-2017 03:05:00 16.6 C 95 % 15.8 C
1191 13-08-2017 03:10:00 16.6 C 95 % 15.8 C
1192 13-08-2017 03:15:00 16.6 C 95 % 15.8 C
1193 13-08-2017 03:20:00 16.6 C 95 % 15.8 C
1194 13-08-2017 03:25:00 16.5 C 95 % 15.7 C
1195 13-08-2017 03:30:00 16.5 C 95 % 15.7 C
1196 13-08-2017 03:35:00 16.4 C 95 % 15.6 C
1197 13-08-2017 03:40:00 16.4 C 95 % 15.6 C
1198 13-08-2017 03:45:00 16.4 C 95 % 15.6 C
1199 13-08-2017 03:50:00 16.4 C 95 % 15.6 C
1200 13-08-2017 03:55:00 16.3 C 95 % 15.5 C
Sensor: Nr:Datum:Temp:Feuchte:Taupunkt:
Aussen-T/F 1201 13-08-2017 04:00:00 16.3 C 95 % 15.5 C
1202 13-08-2017 04:05:00 16.3 C 95 % 15.5 C
1203 13-08-2017 04:10:00 16.3 C 95 % 15.5 C
1204 13-08-2017 04:15:00 16.3 C 95 % 15.5 C
1205 13-08-2017 04:20:00 16.3 C 95 % 15.5 C
1206 13-08-2017 04:25:00 16.3 C 95 % 15.5 C
1207 13-08-2017 04:30:00 16.2 C 95 % 15.4 C
1208 13-08-2017 04:35:00 16.2 C 95 % 15.4 C
1209 13-08-2017 04:40:00 16.2 C 95 % 15.4 C
1210 13-08-2017 04:45:00 16.2 C 95 % 15.4 C
1211 13-08-2017 04:50:00 16.1 C 95 % 15.3 C
1212 13-08-2017 04:55:00 16.1 C 96 % 15.46 C
1213 13-08-2017 05:00:00 16.1 C 95 % 15.3 C
1214 13-08-2017 05:05:00 16.1 C 95 % 15.3 C
1215 13-08-2017 05:10:00 16.1 C 96 % 15.46 C
1216 13-08-2017 05:15:00 16.1 C 96 % 15.46 C
1217 13-08-2017 05:20:00 16.1 C 96 % 15.46 C
1218 13-08-2017 05:25:00 16.1 C 96 % 15.46 C
1219 13-08-2017 05:30:00 16.1 C 96 % 15.46 C
1220 13-08-2017 05:35:00 16.1 C 96 % 15.46 C
1221 13-08-2017 05:40:00 16.1 C 96 % 15.46 C
1222 13-08-2017 05:45:00 16 C 96 % 15.36 C
1223 13-08-2017 05:50:00 15.9 C 96 % 15.26 C
1224 13-08-2017 05:55:00 15.9 C 96 % 15.26 C
1225 13-08-2017 06:00:00 15.8 C 96 % 15.16 C
Sensor: Nr:Datum:Temp:Feuchte:Taupunkt:
Aussen-T/F 1226 13-08-2017 06:05:00 15.7 C 95 % 14.9 C
1227 13-08-2017 06:10:00 15.7 C 95 % 14.9 C
1228 13-08-2017 06:15:00 15.6 C 95 % 14.8 C
1229 13-08-2017 06:20:00 15.5 C 96 % 14.86 C
1230 13-08-2017 06:25:00 15.4 C 96 % 14.77 C
1231 13-08-2017 06:30:00 15.5 C 96 % 14.86 C
1232 13-08-2017 06:35:00 15.6 C 96 % 14.96 C
1233 13-08-2017 06:40:00 15.6 C 96 % 14.96 C
1234 13-08-2017 06:45:00 15.7 C 96 % 15.06 C
1235 13-08-2017 06:50:00 15.7 C 96 % 15.06 C
1236 13-08-2017 06:55:00 15.8 C 96 % 15.16 C
1237 13-08-2017 07:00:00 15.8 C 96 % 15.16 C
1238 13-08-2017 07:05:00 15.8 C 96 % 15.16 C
1239 13-08-2017 07:10:00 15.8 C 96 % 15.16 C
1240 13-08-2017 07:15:00 15.9 C 96 % 15.26 C
1241 13-08-2017 07:20:00 15.9 C 96 % 15.26 C
1242 13-08-2017 07:25:00 16 C 97 % 15.52 C
1243 13-08-2017 07:30:00 16.1 C 96 % 15.46 C
1244 13-08-2017 07:35:00 16.2 C 96 % 15.56 C
1245 13-08-2017 07:40:00 16.2 C 96 % 15.56 C
1246 13-08-2017 07:45:00 16.1 C 96 % 15.46 C
1247 13-08-2017 07:50:00 16.1 C 96 % 15.46 C
1248 13-08-2017 07:55:00 16.1 C 96 % 15.46 C
1249 13-08-2017 08:00:00 16.1 C 96 % 15.46 C
1250 13-08-2017 08:05:00 16.1 C 96 % 15.46 C
Sensor: Nr:Datum:Temp:Feuchte:Taupunkt:
Aussen-T/F 1251 13-08-2017 08:10:00 16.1 C 96 % 15.46 C
1252 13-08-2017 08:15:00 16.1 C 96 % 15.46 C
1253 13-08-2017 08:20:00 16.2 C 96 % 15.56 C
1254 13-08-2017 08:25:00 16.3 C 96 % 15.66 C
1255 13-08-2017 08:30:00 16.3 C 95 % 15.5 C
1256 13-08-2017 08:35:00 16.3 C 95 % 15.5 C
1257 13-08-2017 08:40:00 16.4 C 95 % 15.6 C
1258 13-08-2017 08:45:00 16.6 C 95 % 15.8 C
1259 13-08-2017 08:50:00 16.6 C 94 % 15.63 C
1260 13-08-2017 08:55:00 16.6 C 93 % 15.46 C
1261 13-08-2017 09:00:00 16.7 C 91 % 15.22 C
1262 13-08-2017 09:05:00 16.8 C 90 % 15.15 C
1263 13-08-2017 09:10:00 17 C 90 % 15.35 C
1264 13-08-2017 09:15:00 17.2 C 90 % 15.55 C
1265 13-08-2017 09:20:00 17.2 C 88 % 15.2 C
1266 13-08-2017 09:25:00 17.4 C 87 % 15.21 C
1267 13-08-2017 09:30:00 17.6 C 87 % 15.41 C
1268 13-08-2017 09:35:00 17.7 C 86 % 15.33 C
1269 13-08-2017 09:40:00 17.8 C 85 % 15.25 C
1270 13-08-2017 09:45:00 17.9 C 84 % 15.16 C
1271 13-08-2017 09:50:00 18 C 84 % 15.26 C
1272 13-08-2017 09:55:00 18.1 C 84 % 15.35 C
1273 13-08-2017 10:00:00 18.2 C 86 % 15.82 C
1274 13-08-2017 10:05:00 18.1 C 83 % 15.17 C
1275 13-08-2017 10:10:00 18.1 C 85 % 15.54 C
Sensor: Nr:Datum:Temp:Feuchte:Taupunkt:
Aussen-T/F 1276 13-08-2017 10:15:00 18 C 84 % 15.26 C
1277 13-08-2017 10:20:00 17.9 C 83 % 14.97 C
1278 13-08-2017 10:25:00 17.9 C 83 % 14.97 C
1279 13-08-2017 10:30:00 17.9 C 85 % 15.34 C
1280 13-08-2017 10:35:00 17.8 C 85 % 15.25 C
1281 13-08-2017 10:40:00 17.7 C 83 % 14.78 C
1282 13-08-2017 10:45:00 17.7 C 86 % 15.33 C
1283 13-08-2017 10:50:00 17.7 C 87 % 15.51 C
1284 13-08-2017 10:55:00 17.7 C 84 % 14.96 C
1285 13-08-2017 11:00:00 17.6 C 82 % 14.49 C
1286 13-08-2017 11:05:00 17.9 C 86 % 15.53 C
1287 13-08-2017 11:10:00 18.1 C 86 % 15.72 C
1288 13-08-2017 11:15:00 18.2 C 83 % 15.27 C
1289 13-08-2017 11:20:00 18.4 C 83 % 15.46 C
1290 13-08-2017 11:25:00 18.5 C 79 % 14.79 C
1291 13-08-2017 11:30:00 18.6 C 77 % 14.49 C
1292 13-08-2017 11:35:00 18.7 C 80 % 15.18 C
1293 13-08-2017 11:40:00 18.7 C 83 % 15.75 C
1294 13-08-2017 11:45:00 18.7 C 85 % 16.13 C
1295 13-08-2017 11:50:00 18.7 C 86 % 16.31 C
1296 13-08-2017 11:55:00 18.7 C 83 % 15.75 C
1297 13-08-2017 12:00:00 18.8 C 79 % 15.08 C
1298 13-08-2017 12:05:00 19.1 C 79 % 15.37 C
1299 13-08-2017 12:10:00 19.2 C 78 % 15.27 C
1300 13-08-2017 12:15:00 19.4 C 75 % 14.86 C
Sensor: Nr:Datum:Temp:Feuchte:Taupunkt:
Aussen-T/F 1301 13-08-2017 12:20:00 19.7 C 76 % 15.35 C
1302 13-08-2017 12:25:00 19.9 C 73 % 14.92 C
1303 13-08-2017 12:30:00 20.1 C 73 % 15.11 C
1304 13-08-2017 12:35:00 20.2 C 72 % 14.99 C
1305 13-08-2017 12:40:00 20.3 C 74 % 15.51 C
1306 13-08-2017 12:45:00 20.3 C 75 % 15.72 C
1307 13-08-2017 12:50:00 20.3 C 74 % 15.51 C
1308 13-08-2017 12:55:00 20.3 C 74 % 15.51 C
1309 13-08-2017 13:00:00 20.2 C 74 % 15.42 C
1310 13-08-2017 13:05:00 20.1 C 72 % 14.9 C
1311 13-08-2017 13:10:00 20.2 C 71 % 14.78 C
1312 13-08-2017 13:15:00 20.2 C 72 % 14.99 C
1313 13-08-2017 13:20:00 20.4 C 72 % 15.18 C
1314 13-08-2017 13:25:00 20.6 C 70 % 14.94 C
1315 13-08-2017 13:30:00 20.8 C 69 % 14.91 C
1316 13-08-2017 13:35:00 20.9 C 69 % 15 C
1317 13-08-2017 13:40:00 21 C 71 % 15.54 C
1318 13-08-2017 13:45:00 21 C 71 % 15.54 C
1319 13-08-2017 13:50:00 21.1 C 72 % 15.86 C
1320 13-08-2017 13:55:00 21.1 C 69 % 15.19 C
1321 13-08-2017 14:00:00 21.3 C 71 % 15.83 C
1322 13-08-2017 14:05:00 21.4 C 69 % 15.48 C
1323 13-08-2017 14:10:00 21.4 C 68 % 15.25 C
1324 13-08-2017 14:15:00 21.5 C 67 % 15.12 C
1325 13-08-2017 14:20:00 21.6 C 65 % 14.74 C
Sensor: Nr:Datum:Temp:Feuchte:Taupunkt:
Aussen-T/F 1326 13-08-2017 14:25:00 21.6 C 65 % 14.74 C
1327 13-08-2017 14:30:00 21.6 C 66 % 14.98 C
1328 13-08-2017 14:35:00 21.7 C 67 % 15.31 C
1329 13-08-2017 14:40:00 21.7 C 66 % 15.07 C
1330 13-08-2017 14:45:00 21.6 C 68 % 15.44 C
1331 13-08-2017 14:50:00 21.6 C 68 % 15.44 C
1332 13-08-2017 14:55:00 21.5 C 68 % 15.35 C
1333 13-08-2017 15:00:00 21.6 C 70 % 15.89 C
1334 13-08-2017 15:05:00 21.7 C 66 % 15.07 C
1335 13-08-2017 15:10:00 21.7 C 67 % 15.31 C
1336 13-08-2017 15:15:00 21.8 C 67 % 15.4 C
1337 13-08-2017 15:20:00 21.9 C 67 % 15.5 C
1338 13-08-2017 15:25:00 22.2 C 66 % 15.55 C
1339 13-08-2017 15:30:00 22.4 C 65 % 15.5 C
1340 13-08-2017 15:35:00 22.6 C 64 % 15.45 C
1341 13-08-2017 15:40:00 22.6 C 62 % 14.95 C
1342 13-08-2017 15:45:00 22.6 C 62 % 14.95 C
1343 13-08-2017 15:50:00 22.5 C 65 % 15.59 C
1344 13-08-2017 15:55:00 22.1 C 66 % 15.45 C
1345 13-08-2017 16:00:00 22.2 C 67 % 15.78 C
1346 13-08-2017 16:05:00 22.5 C 67 % 16.07 C
1347 13-08-2017 16:10:00 22.7 C 65 % 15.78 C
1348 13-08-2017 16:15:00 22.7 C 65 % 15.78 C
1349 13-08-2017 16:20:00 22.4 C 64 % 15.26 C
1350 13-08-2017 16:25:00 22.2 C 66 % 15.55 C
Sensor: Nr:Datum:Temp:Feuchte:Taupunkt:
Aussen-T/F 1351 13-08-2017 16:30:00 22.1 C 72 % 16.82 C
1352 13-08-2017 16:35:00 22.2 C 64 % 15.07 C
1353 13-08-2017 16:40:00 22.6 C 65 % 15.69 C
1354 13-08-2017 16:45:00 22.8 C 64 % 15.64 C
1355 13-08-2017 16:50:00 23 C 64 % 15.82 C
1356 13-08-2017 16:55:00 22.9 C 61 % 14.98 C
1357 13-08-2017 17:00:00 22.7 C 63 % 15.3 C
1358 13-08-2017 17:05:00 22.8 C 72 % 17.49 C
1359 13-08-2017 17:10:00 22.8 C 73 % 17.71 C
1360 13-08-2017 17:15:00 22.7 C 75 % 18.04 C
1361 13-08-2017 17:20:00 22.4 C 65 % 15.5 C
1362 13-08-2017 17:25:00 22.2 C 63 % 14.82 C
1363 13-08-2017 17:30:00 22.2 C 75 % 17.56 C
1364 13-08-2017 17:35:00 22.2 C 78 % 18.18 C
1365 13-08-2017 17:40:00 22.4 C 69 % 16.43 C
1366 13-08-2017 17:45:00 22.8 C 61 % 14.89 C
1367 13-08-2017 17:50:00 23.2 C 63 % 15.77 C
1368 13-08-2017 17:55:00 23.3 C 59 % 14.84 C
1369 13-08-2017 18:00:00 23.2 C 70 % 17.42 C
1370 13-08-2017 18:05:00 22.9 C 74 % 18.02 C
1371 13-08-2017 18:10:00 23.1 C 66 % 16.4 C
1372 13-08-2017 18:15:00 23.3 C 64 % 16.11 C
1373 13-08-2017 18:20:00 23.4 C 70 % 17.62 C
1374 13-08-2017 18:25:00 23.1 C 71 % 17.55 C
1375 13-08-2017 18:30:00 22.7 C 71 % 17.17 C
Sensor: Nr:Datum:Temp:Feuchte:Taupunkt:
Aussen-T/F 1376 13-08-2017 18:35:00 22.1 C 73 % 17.03 C
1377 13-08-2017 18:40:00 21.6 C 75 % 16.98 C
1378 13-08-2017 18:45:00 21.2 C 75 % 16.59 C
1379 13-08-2017 18:50:00 20.9 C 77 % 16.72 C
1380 13-08-2017 18:55:00 20.7 C 79 % 16.93 C
1381 13-08-2017 19:00:00 20.6 C 79 % 16.83 C
1382 13-08-2017 19:05:00 20.4 C 79 % 16.64 C
1383 13-08-2017 19:10:00 20.3 C 80 % 16.74 C
1384 13-08-2017 19:15:00 20.2 C 81 % 16.84 C
1385 13-08-2017 19:20:00 20.1 C 81 % 16.74 C
1386 13-08-2017 19:25:00 20 C 82 % 16.83 C
1387 13-08-2017 19:30:00 19.9 C 81 % 16.54 C
1388 13-08-2017 19:35:00 19.8 C 81 % 16.45 C
1389 13-08-2017 19:40:00 19.5 C 82 % 16.35 C
1390 13-08-2017 19:45:00 19.3 C 81 % 15.96 C
1391 13-08-2017 19:50:00 19.1 C 82 % 15.96 C
1392 13-08-2017 19:55:00 18.9 C 83 % 15.95 C
1393 13-08-2017 20:00:00 18.9 C 83 % 15.95 C
1394 13-08-2017 20:05:00 18.9 C 83 % 15.95 C
1395 13-08-2017 20:10:00 18.9 C 83 % 15.95 C
1396 13-08-2017 20:15:00 18.9 C 84 % 16.14 C
1397 13-08-2017 20:20:00 18.9 C 84 % 16.14 C
1398 13-08-2017 20:25:00 18.9 C 83 % 15.95 C
1399 13-08-2017 20:30:00 18.8 C 83 % 15.85 C
1400 13-08-2017 20:35:00 18.8 C 83 % 15.85 C
Sensor: Nr:Datum:Temp:Feuchte:Taupunkt:
Aussen-T/F 1401 13-08-2017 20:40:00 18.7 C 83 % 15.75 C
1402 13-08-2017 20:45:00 18.5 C 84 % 15.75 C
1403 13-08-2017 20:50:00 18.3 C 83 % 15.36 C
1404 13-08-2017 20:55:00 18.2 C 83 % 15.27 C
1405 13-08-2017 21:00:00 18 C 84 % 15.26 C
1406 13-08-2017 21:05:00 17.8 C 84 % 15.06 C
1407 13-08-2017 21:10:00 17.7 C 83 % 14.78 C
1408 13-08-2017 21:15:00 17.5 C 83 % 14.58 C
1409 13-08-2017 21:20:00 17.4 C 83 % 14.48 C
1410 13-08-2017 21:25:00 17.3 C 83 % 14.39 C
1411 13-08-2017 21:30:00 17.2 C 84 % 14.47 C
1412 13-08-2017 21:35:00 17.1 C 84 % 14.38 C
1413 13-08-2017 21:40:00 16.9 C 84 % 14.18 C
1414 13-08-2017 21:45:00 16.9 C 85 % 14.36 C
1415 13-08-2017 21:50:00 16.8 C 85 % 14.26 C
1416 13-08-2017 21:55:00 16.7 C 86 % 14.35 C
1417 13-08-2017 22:00:00 16.6 C 87 % 14.43 C
1418 13-08-2017 22:05:00 16.4 C 87 % 14.23 C
1419 13-08-2017 22:10:00 16.3 C 87 % 14.13 C
1420 13-08-2017 22:15:00 16.2 C 87 % 14.03 C
1421 13-08-2017 22:20:00 16.1 C 88 % 14.11 C
1422 13-08-2017 22:25:00 16 C 88 % 14.01 C
1423 13-08-2017 22:30:00 15.8 C 89 % 13.99 C
1424 13-08-2017 22:35:00 15.8 C 89 % 13.99 C
1425 13-08-2017 22:40:00 15.6 C 89 % 13.79 C
Sensor: Nr:Datum:Temp:Feuchte:Taupunkt:
Aussen-T/F 1426 13-08-2017 22:45:00 15.5 C 89 % 13.7 C
1427 13-08-2017 22:50:00 15.3 C 89 % 13.5 C
1428 13-08-2017 22:55:00 15.2 C 90 % 13.57 C
1429 13-08-2017 23:00:00 15.1 C 90 % 13.47 C
1430 13-08-2017 23:05:00 15.1 C 91 % 13.64 C
1431 13-08-2017 23:10:00 14.9 C 91 % 13.44 C
1432 13-08-2017 23:15:00 14.8 C 91 % 13.35 C
1433 13-08-2017 23:20:00 14.7 C 91 % 13.25 C
1434 13-08-2017 23:25:00 14.6 C 91 % 13.15 C
1435 13-08-2017 23:30:00 14.4 C 92 % 13.12 C
1436 13-08-2017 23:35:00 14.4 C 92 % 13.12 C
1437 13-08-2017 23:40:00 14.3 C 92 % 13.02 C
1438 13-08-2017 23:45:00 14.2 C 92 % 12.92 C
1439 13-08-2017 23:50:00 14.2 C 92 % 12.92 C
1440 13-08-2017 23:55:00 14.1 C 92 % 12.82 C
1441 14-08-2017 00:00:00 14 C 92 % 12.72 C
1442 14-08-2017 00:05:00 13.9 C 92 % 12.62 C
1443 14-08-2017 00:10:00 13.8 C 93 % 12.69 C
1444 14-08-2017 00:15:00 13.8 C 93 % 12.69 C
1445 14-08-2017 00:20:00 13.7 C 93 % 12.59 C
1446 14-08-2017 00:25:00 13.7 C 93 % 12.59 C
1447 14-08-2017 00:30:00 13.6 C 93 % 12.49 C
1448 14-08-2017 00:35:00 13.6 C 93 % 12.49 C
1449 14-08-2017 00:40:00 13.5 C 93 % 12.39 C
1450 14-08-2017 00:45:00 13.4 C 94 % 12.45 C
Sensor: Nr:Datum:Temp:Feuchte:Taupunkt:
Aussen-T/F 1451 14-08-2017 00:50:00 13.4 C 94 % 12.45 C
1452 14-08-2017 00:55:00 13.3 C 94 % 12.36 C
1453 14-08-2017 01:00:00 13.3 C 94 % 12.36 C
1454 14-08-2017 01:05:00 13.2 C 94 % 12.26 C
1455 14-08-2017 01:10:00 13.2 C 94 % 12.26 C
1456 14-08-2017 01:15:00 13.2 C 94 % 12.26 C
1457 14-08-2017 01:20:00 13.1 C 94 % 12.16 C
1458 14-08-2017 01:25:00 13.1 C 94 % 12.16 C
1459 14-08-2017 01:30:00 13.1 C 94 % 12.16 C
1460 14-08-2017 01:35:00 13 C 94 % 12.06 C
1461 14-08-2017 01:40:00 12.9 C 94 % 11.96 C
1462 14-08-2017 01:45:00 12.9 C 94 % 11.96 C
1463 14-08-2017 01:50:00 12.8 C 94 % 11.86 C
1464 14-08-2017 01:55:00 12.8 C 94 % 11.86 C
1465 14-08-2017 02:00:00 12.7 C 94 % 11.76 C
1466 14-08-2017 02:05:00 12.7 C 95 % 11.92 C
1467 14-08-2017 02:10:00 12.7 C 95 % 11.92 C
1468 14-08-2017 02:15:00 12.6 C 95 % 11.82 C
1469 14-08-2017 02:20:00 12.6 C 95 % 11.82 C
1470 14-08-2017 02:25:00 12.6 C 95 % 11.82 C
1471 14-08-2017 02:30:00 12.4 C 95 % 11.62 C
1472 14-08-2017 02:35:00 12.4 C 95 % 11.62 C
1473 14-08-2017 02:40:00 12.4 C 95 % 11.62 C
1474 14-08-2017 02:45:00 12.3 C 95 % 11.52 C
1475 14-08-2017 02:50:00 12.3 C 95 % 11.52 C
Sensor: Nr:Datum:Temp:Feuchte:Taupunkt:
Aussen-T/F 1476 14-08-2017 02:55:00 12.3 C 95 % 11.52 C
1477 14-08-2017 03:00:00 12.2 C 95 % 11.42 C
1478 14-08-2017 03:05:00 12.2 C 95 % 11.42 C
1479 14-08-2017 03:10:00 12.2 C 95 % 11.42 C
1480 14-08-2017 03:15:00 12.2 C 95 % 11.42 C
1481 14-08-2017 03:20:00 12.2 C 95 % 11.42 C
1482 14-08-2017 03:25:00 12.1 C 95 % 11.32 C
1483 14-08-2017 03:30:00 12.2 C 95 % 11.42 C
1484 14-08-2017 03:35:00 12.2 C 95 % 11.42 C
1485 14-08-2017 03:40:00 12.1 C 95 % 11.32 C
1486 14-08-2017 03:45:00 12.1 C 95 % 11.32 C
1487 14-08-2017 03:50:00 12 C 95 % 11.22 C
1488 14-08-2017 03:55:00 11.9 C 95 % 11.13 C
1489 14-08-2017 04:00:00 11.9 C 95 % 11.13 C
1490 14-08-2017 04:05:00 11.8 C 95 % 11.03 C
1491 14-08-2017 04:10:00 11.8 C 95 % 11.03 C
1492 14-08-2017 04:15:00 11.8 C 95 % 11.03 C
1493 14-08-2017 04:20:00 11.8 C 95 % 11.03 C
1494 14-08-2017 04:25:00 11.8 C 95 % 11.03 C
1495 14-08-2017 04:30:00 11.8 C 96 % 11.18 C
1496 14-08-2017 04:35:00 11.8 C 95 % 11.03 C
1497 14-08-2017 04:40:00 11.7 C 96 % 11.08 C
1498 14-08-2017 04:45:00 11.7 C 96 % 11.08 C
1499 14-08-2017 04:50:00 11.7 C 96 % 11.08 C
1500 14-08-2017 04:55:00 11.6 C 96 % 10.98 C
Sensor: Nr:Datum:Temp:Feuchte:Taupunkt:
Aussen-T/F 1501 14-08-2017 05:00:00 11.6 C 96 % 10.98 C
1502 14-08-2017 05:05:00 11.6 C 96 % 10.98 C
1503 14-08-2017 05:10:00 11.6 C 96 % 10.98 C
1504 14-08-2017 05:15:00 11.6 C 96 % 10.98 C
1505 14-08-2017 05:20:00 11.6 C 96 % 10.98 C
1506 14-08-2017 05:25:00 11.7 C 96 % 11.08 C
1507 14-08-2017 05:30:00 11.7 C 96 % 11.08 C
1508 14-08-2017 05:35:00 11.7 C 96 % 11.08 C
1509 14-08-2017 05:40:00 11.8 C 96 % 11.18 C
1510 14-08-2017 05:45:00 11.7 C 96 % 11.08 C
1511 14-08-2017 05:50:00 11.7 C 96 % 11.08 C
1512 14-08-2017 05:55:00 11.8 C 96 % 11.18 C
1513 14-08-2017 06:00:00 11.8 C 96 % 11.18 C
1514 14-08-2017 06:05:00 11.8 C 96 % 11.18 C
1515 14-08-2017 06:10:00 11.9 C 96 % 11.28 C
1516 14-08-2017 06:15:00 11.9 C 96 % 11.28 C
1517 14-08-2017 06:20:00 11.9 C 96 % 11.28 C
1518 14-08-2017 06:25:00 12 C 96 % 11.38 C
1519 14-08-2017 06:30:00 12 C 96 % 11.38 C
1520 14-08-2017 06:35:00 12.1 C 96 % 11.48 C
1521 14-08-2017 06:40:00 12.1 C 96 % 11.48 C
1522 14-08-2017 06:45:00 12.2 C 96 % 11.58 C
1523 14-08-2017 06:50:00 12.2 C 96 % 11.58 C
1524 14-08-2017 06:55:00 12.3 C 96 % 11.68 C
1525 14-08-2017 07:00:00 12.3 C 96 % 11.68 C
Sensor: Nr:Datum:Temp:Feuchte:Taupunkt:
Aussen-T/F 1526 14-08-2017 07:05:00 12.4 C 97 % 11.94 C
1527 14-08-2017 07:10:00 12.4 C 97 % 11.94 C
1528 14-08-2017 07:15:00 12.5 C 97 % 12.04 C
1529 14-08-2017 07:20:00 12.6 C 97 % 12.14 C
1530 14-08-2017 07:25:00 12.6 C 97 % 12.14 C
1531 14-08-2017 07:30:00 12.6 C 96 % 11.98 C
1532 14-08-2017 07:35:00 12.6 C 96 % 11.98 C
1533 14-08-2017 07:40:00 12.7 C 96 % 12.08 C
1534 14-08-2017 07:45:00 12.7 C 96 % 12.08 C
1535 14-08-2017 07:50:00 12.8 C 97 % 12.34 C
1536 14-08-2017 07:55:00 12.8 C 97 % 12.34 C
1537 14-08-2017 08:00:00 12.9 C 97 % 12.44 C
1538 14-08-2017 08:05:00 12.8 C 97 % 12.34 C
1539 14-08-2017 08:10:00 12.9 C 97 % 12.44 C
1540 14-08-2017 08:15:00 13.1 C 97 % 12.63 C
1541 14-08-2017 08:20:00 13.2 C 97 % 12.73 C
1542 14-08-2017 08:25:00 13.2 C 97 % 12.73 C
1543 14-08-2017 08:30:00 13.3 C 97 % 12.83 C
1544 14-08-2017 08:35:00 13.3 C 97 % 12.83 C
1545 14-08-2017 08:40:00 13.4 C 97 % 12.93 C
1546 14-08-2017 08:45:00 13.4 C 97 % 12.93 C
1547 14-08-2017 08:50:00 13.5 C 97 % 13.03 C
1548 14-08-2017 08:55:00 13.6 C 97 % 13.13 C
1549 14-08-2017 09:00:00 13.6 C 97 % 13.13 C
1550 14-08-2017 09:05:00 13.7 C 97 % 13.23 C
Sensor: Nr:Datum:Temp:Feuchte:Taupunkt:
Aussen-T/F 1551 14-08-2017 09:10:00 13.7 C 97 % 13.23 C
1552 14-08-2017 09:15:00 13.7 C 97 % 13.23 C
1553 14-08-2017 09:20:00 13.7 C 97 % 13.23 C
1554 14-08-2017 09:25:00 13.7 C 97 % 13.23 C
1555 14-08-2017 09:30:00 13.8 C 97 % 13.33 C
1556 14-08-2017 09:35:00 13.8 C 97 % 13.33 C
1557 14-08-2017 09:40:00 13.9 C 97 % 13.43 C
1558 14-08-2017 09:45:00 14.1 C 97 % 13.63 C
1559 14-08-2017 09:50:00 14.2 C 97 % 13.73 C
1560 14-08-2017 09:55:00 14.3 C 97 % 13.83 C
1561 14-08-2017 10:00:00 14.4 C 97 % 13.93 C
1562 14-08-2017 10:05:00 14.6 C 97 % 14.13 C
1563 14-08-2017 10:10:00 14.7 C 97 % 14.23 C
1564 14-08-2017 10:15:00 14.8 C 97 % 14.33 C
1565 14-08-2017 10:20:00 15 C 97 % 14.53 C
1566 14-08-2017 10:25:00 15.2 C 97 % 14.73 C
1567 14-08-2017 10:30:00 15.3 C 97 % 14.83 C
1568 14-08-2017 10:35:00 15.5 C 97 % 15.03 C
1569 14-08-2017 10:40:00 15.7 C 97 % 15.23 C
1570 14-08-2017 10:45:00 15.9 C 97 % 15.42 C
1571 14-08-2017 10:50:00 16.1 C 97 % 15.62 C
1572 14-08-2017 10:55:00 16.2 C 97 % 15.72 C
1573 14-08-2017 11:00:00 16.3 C 97 % 15.82 C
1574 14-08-2017 11:05:00 16.5 C 97 % 16.02 C
1575 14-08-2017 11:10:00 16.7 C 97 % 16.22 C
Sensor: Nr:Datum:Temp:Feuchte:Taupunkt:
Aussen-T/F 1576 14-08-2017 11:15:00 16.8 C 97 % 16.32 C
1577 14-08-2017 11:20:00 17 C 97 % 16.52 C
1578 14-08-2017 11:25:00 17.2 C 97 % 16.72 C
1579 14-08-2017 11:30:00 17.3 C 97 % 16.82 C
1580 14-08-2017 11:35:00 17.4 C 96 % 16.76 C
1581 14-08-2017 11:40:00 17.7 C 96 % 17.05 C
1582 14-08-2017 11:45:00 18.1 C 94 % 17.12 C
1583 14-08-2017 11:50:00 18.4 C 93 % 17.25 C
1584 14-08-2017 11:55:00 18.9 C 91 % 17.4 C
1585 14-08-2017 12:00:00 19.4 C 90 % 17.72 C
1586 14-08-2017 12:05:00 19.7 C 89 % 17.84 C
1587 14-08-2017 12:10:00 19.8 C 88 % 17.75 C
1588 14-08-2017 12:15:00 20.1 C 86 % 17.68 C
1589 14-08-2017 12:20:00 20.3 C 85 % 17.7 C
1590 14-08-2017 12:25:00 20.6 C 84 % 17.8 C
1591 14-08-2017 12:30:00 20.8 C 83 % 17.81 C
1592 14-08-2017 12:35:00 21.1 C 84 % 18.29 C
1593 14-08-2017 12:40:00 21.3 C 83 % 18.29 C
1594 14-08-2017 12:45:00 21.7 C 82 % 18.49 C
1595 14-08-2017 12:50:00 22 C 80 % 18.39 C
1596 14-08-2017 12:55:00 22.4 C 78 % 18.37 C
1597 14-08-2017 13:00:00 22.8 C 79 % 18.97 C
1598 14-08-2017 13:05:00 22.8 C 82 % 19.56 C
1599 14-08-2017 13:10:00 22.7 C 83 % 19.66 C
1600 14-08-2017 13:15:00 22.4 C 78 % 18.37 C
Sensor: Nr:Datum:Temp:Feuchte:Taupunkt:
Aussen-T/F 1601 14-08-2017 13:20:00 22.4 C 77 % 18.17 C
1602 14-08-2017 13:25:00 22.5 C 78 % 18.47 C
1603 14-08-2017 13:30:00 22.5 C 79 % 18.67 C
1604 14-08-2017 13:35:00 22.6 C 79 % 18.77 C
1605 14-08-2017 13:40:00 22.6 C 78 % 18.57 C
1606 14-08-2017 13:45:00 22.7 C 75 % 18.04 C
1607 14-08-2017 13:50:00 23 C 74 % 18.12 C
1608 14-08-2017 13:55:00 23.1 C 77 % 18.85 C
1609 14-08-2017 14:00:00 23.1 C 74 % 18.21 C
1610 14-08-2017 14:05:00 23.2 C 73 % 18.09 C
1611 14-08-2017 14:10:00 23.3 C 75 % 18.62 C
1612 14-08-2017 14:15:00 23.4 C 73 % 18.28 C
1613 14-08-2017 14:20:00 23.7 C 71 % 18.13 C
1614 14-08-2017 14:25:00 23.9 C 72 % 18.54 C
1615 14-08-2017 14:30:00 24 C 71 % 18.42 C
1616 14-08-2017 14:35:00 24.2 C 72 % 18.83 C
1617 14-08-2017 14:40:00 24.2 C 68 % 17.92 C
1618 14-08-2017 14:45:00 24.3 C 73 % 19.15 C
1619 14-08-2017 14:50:00 24.3 C 70 % 18.48 C
1620 14-08-2017 14:55:00 24.4 C 68 % 18.11 C
1621 14-08-2017 15:00:00 24.6 C 69 % 18.53 C
1622 14-08-2017 15:05:00 24.6 C 68 % 18.3 C
1623 14-08-2017 15:10:00 24.7 C 66 % 17.92 C
1624 14-08-2017 15:15:00 24.8 C 69 % 18.72 C
1625 14-08-2017 15:20:00 24.9 C 67 % 18.35 C
Sensor: Nr:Datum:Temp:Feuchte:Taupunkt:
Aussen-T/F 1626 14-08-2017 15:25:00 25 C 67 % 18.44 C
1627 14-08-2017 15:30:00 25.1 C 70 % 19.24 C
1628 14-08-2017 15:35:00 25.2 C 66 % 18.39 C
1629 14-08-2017 15:40:00 25.3 C 69 % 19.2 C
1630 14-08-2017 15:45:00 25.4 C 66 % 18.58 C
1631 14-08-2017 15:50:00 25.6 C 69 % 19.49 C
1632 14-08-2017 15:55:00 25.8 C 65 % 18.72 C
1633 14-08-2017 16:00:00 26.1 C 66 % 19.25 C
1634 14-08-2017 16:05:00 25.9 C 67 % 19.3 C
1635 14-08-2017 16:10:00 26 C 67 % 19.4 C
1636 14-08-2017 16:15:00 26 C 65 % 18.91 C
1637 14-08-2017 16:20:00 26.1 C 71 % 20.43 C
1638 14-08-2017 16:25:00 26 C 67 % 19.4 C
1639 14-08-2017 16:30:00 26.1 C 71 % 20.43 C
1640 14-08-2017 16:35:00 26.1 C 72 % 20.65 C
1641 14-08-2017 16:40:00 25.9 C 67 % 19.3 C
1642 14-08-2017 16:45:00 26.1 C 69 % 19.96 C
1643 14-08-2017 16:50:00 26.3 C 70 % 20.39 C
1644 14-08-2017 16:55:00 26.5 C 72 % 21.04 C
1645 14-08-2017 17:00:00 26.4 C 71 % 20.71 C
1646 14-08-2017 17:05:00 26.1 C 71 % 20.43 C
1647 14-08-2017 17:10:00 25.8 C 73 % 20.59 C
1648 14-08-2017 17:15:00 25.4 C 75 % 20.64 C
1649 14-08-2017 17:20:00 25.2 C 77 % 20.88 C
1650 14-08-2017 17:25:00 25.1 C 77 % 20.78 C
Sensor: Nr:Datum:Temp:Feuchte:Taupunkt:
Aussen-T/F 1651 14-08-2017 17:30:00 24.8 C 78 % 20.7 C
1652 14-08-2017 17:35:00 25.1 C 81 % 21.61 C
1653 14-08-2017 17:40:00 25.5 C 78 % 21.38 C
1654 14-08-2017 17:45:00 25.6 C 75 % 20.84 C
1655 14-08-2017 17:50:00 25.4 C 76 % 20.86 C
1656 14-08-2017 17:55:00 25.7 C 75 % 20.93 C
1657 14-08-2017 18:00:00 26.2 C 75 % 21.41 C
1658 14-08-2017 18:05:00 26.4 C 75 % 21.61 C
1659 14-08-2017 18:10:00 26.4 C 65 % 19.29 C
1660 14-08-2017 18:15:00 26.6 C 72 % 21.13 C
1661 14-08-2017 18:20:00 26.9 C 73 % 21.65 C
1662 14-08-2017 18:25:00 27 C 73 % 21.74 C
1663 14-08-2017 18:30:00 27.1 C 68 % 20.68 C
1664 14-08-2017 18:35:00 27.2 C 71 % 21.48 C
1665 14-08-2017 18:40:00 27.2 C 70 % 21.25 C
1666 14-08-2017 18:45:00 27 C 70 % 21.06 C
1667 14-08-2017 18:50:00 26.6 C 70 % 20.67 C
1668 14-08-2017 18:55:00 26.1 C 72 % 20.65 C
1669 14-08-2017 19:00:00 25.4 C 73 % 20.21 C
1670 14-08-2017 19:05:00 25 C 75 % 20.26 C
1671 14-08-2017 19:10:00 24.7 C 77 % 20.39 C
1672 14-08-2017 19:15:00 24.4 C 77 % 20.1 C
1673 14-08-2017 19:20:00 24.3 C 77 % 20.01 C
1674 14-08-2017 19:25:00 24.2 C 78 % 20.12 C
1675 14-08-2017 19:30:00 24.1 C 78 % 20.02 C
Sensor: Nr:Datum:Temp:Feuchte:Taupunkt:
Aussen-T/F 1676 14-08-2017 19:35:00 24 C 79 % 20.13 C
1677 14-08-2017 19:40:00 23.9 C 79 % 20.03 C
1678 14-08-2017 19:45:00 23.7 C 79 % 19.84 C
1679 14-08-2017 19:50:00 23.5 C 79 % 19.65 C
1680 14-08-2017 19:55:00 23.3 C 80 % 19.65 C
1681 14-08-2017 20:00:00 23.1 C 80 % 19.46 C
1682 14-08-2017 20:05:00 22.7 C 80 % 19.07 C
1683 14-08-2017 20:10:00 22.4 C 81 % 18.98 C
1684 14-08-2017 20:15:00 22.1 C 82 % 18.88 C
1685 14-08-2017 20:20:00 21.8 C 83 % 18.78 C
1686 14-08-2017 20:25:00 21.6 C 84 % 18.78 C
1687 14-08-2017 20:30:00 21.3 C 84 % 18.49 C
1688 14-08-2017 20:35:00 21.2 C 85 % 18.58 C
1689 14-08-2017 20:40:00 21 C 85 % 18.38 C
1690 14-08-2017 20:45:00 20.9 C 86 % 18.47 C
1691 14-08-2017 20:50:00 20.8 C 86 % 18.37 C
1692 14-08-2017 20:55:00 20.7 C 86 % 18.27 C
1693 14-08-2017 21:00:00 20.7 C 87 % 18.46 C
1694 14-08-2017 21:05:00 20.7 C 87 % 18.46 C
1695 14-08-2017 21:10:00 20.6 C 87 % 18.36 C
1696 14-08-2017 21:15:00 20.5 C 88 % 18.44 C
1697 14-08-2017 21:20:00 20.4 C 88 % 18.34 C
1698 14-08-2017 21:25:00 20.3 C 88 % 18.25 C
1699 14-08-2017 21:30:00 20.3 C 88 % 18.25 C
1700 14-08-2017 21:35:00 20.2 C 88 % 18.15 C
Sensor: Nr:Datum:Temp:Feuchte:Taupunkt:
Aussen-T/F 1701 14-08-2017 21:40:00 20.1 C 88 % 18.05 C
1702 14-08-2017 21:45:00 20 C 88 % 17.95 C
1703 14-08-2017 21:50:00 19.9 C 88 % 17.85 C
1704 14-08-2017 21:55:00 19.9 C 88 % 17.85 C
1705 14-08-2017 22:00:00 19.8 C 88 % 17.75 C
1706 14-08-2017 22:05:00 19.8 C 89 % 17.93 C
1707 14-08-2017 22:10:00 19.7 C 89 % 17.84 C
1708 14-08-2017 22:15:00 19.6 C 89 % 17.74 C
1709 14-08-2017 22:20:00 19.6 C 89 % 17.74 C
1710 14-08-2017 22:25:00 19.4 C 89 % 17.54 C
1711 14-08-2017 22:30:00 19.4 C 89 % 17.54 C
1712 14-08-2017 22:35:00 19.4 C 89 % 17.54 C
1713 14-08-2017 22:40:00 19.3 C 89 % 17.44 C
1714 14-08-2017 22:45:00 19.3 C 89 % 17.44 C
1715 14-08-2017 22:50:00 19.2 C 90 % 17.52 C
1716 14-08-2017 22:55:00 19.1 C 90 % 17.42 C
1717 14-08-2017 23:00:00 18.9 C 90 % 17.22 C
1718 14-08-2017 23:05:00 18.8 C 91 % 17.3 C
1719 14-08-2017 23:10:00 18.8 C 91 % 17.3 C
1720 14-08-2017 23:15:00 18.8 C 91 % 17.3 C
1721 14-08-2017 23:20:00 18.7 C 91 % 17.2 C
1722 14-08-2017 23:25:00 18.5 C 91 % 17 C
1723 14-08-2017 23:30:00 18.4 C 91 % 16.9 C
1724 14-08-2017 23:35:00 18.2 C 91 % 16.71 C
1725 14-08-2017 23:40:00 18.1 C 91 % 16.61 C
Sensor: Nr:Datum:Temp:Feuchte:Taupunkt:
Aussen-T/F 1726 14-08-2017 23:45:00 18 C 92 % 16.68 C
1727 14-08-2017 23:50:00 17.9 C 92 % 16.58 C
1728 14-08-2017 23:55:00 17.8 C 92 % 16.48 C
1729 15-08-2017 00:00:00 17.7 C 92 % 16.38 C
1730 15-08-2017 00:05:00 17.6 C 92 % 16.28 C
1731 15-08-2017 00:10:00 17.4 C 92 % 16.09 C
1732 15-08-2017 00:15:00 17.4 C 93 % 16.26 C
1733 15-08-2017 00:20:00 17.4 C 93 % 16.26 C
1734 15-08-2017 00:25:00 17.3 C 93 % 16.16 C
1735 15-08-2017 00:30:00 17.2 C 93 % 16.06 C
1736 15-08-2017 00:35:00 17.2 C 93 % 16.06 C
1737 15-08-2017 00:40:00 17.2 C 93 % 16.06 C
1738 15-08-2017 00:45:00 17.1 C 93 % 15.96 C
1739 15-08-2017 00:50:00 17 C 94 % 16.03 C
1740 15-08-2017 00:55:00 16.9 C 93 % 15.76 C
1741 15-08-2017 01:00:00 16.9 C 94 % 15.93 C
1742 15-08-2017 01:05:00 16.8 C 94 % 15.83 C
1743 15-08-2017 01:10:00 16.8 C 94 % 15.83 C
1744 15-08-2017 01:15:00 16.7 C 94 % 15.73 C
1745 15-08-2017 01:20:00 16.7 C 94 % 15.73 C
1746 15-08-2017 01:25:00 16.5 C 94 % 15.53 C
1747 15-08-2017 01:30:00 16.4 C 94 % 15.43 C
1748 15-08-2017 01:35:00 16.4 C 94 % 15.43 C
1749 15-08-2017 01:40:00 16.4 C 94 % 15.43 C
1750 15-08-2017 01:45:00 16.3 C 94 % 15.33 C
Sensor: Nr:Datum:Temp:Feuchte:Taupunkt:
Aussen-T/F 1751 15-08-2017 01:50:00 16.3 C 94 % 15.33 C
1752 15-08-2017 01:55:00 16.3 C 94 % 15.33 C
1753 15-08-2017 02:00:00 16.2 C 94 % 15.23 C
1754 15-08-2017 02:05:00 16.2 C 94 % 15.23 C
1755 15-08-2017 02:10:00 16.1 C 95 % 15.3 C
1756 15-08-2017 02:15:00 16.1 C 95 % 15.3 C
1757 15-08-2017 02:20:00 16 C 95 % 15.2 C
1758 15-08-2017 02:25:00 15.9 C 95 % 15.1 C
1759 15-08-2017 02:30:00 15.9 C 95 % 15.1 C
1760 15-08-2017 02:35:00 16 C 95 % 15.2 C
1761 15-08-2017 02:40:00 15.9 C 95 % 15.1 C
1762 15-08-2017 02:45:00 15.9 C 95 % 15.1 C
1763 15-08-2017 02:50:00 15.8 C 95 % 15 C
1764 15-08-2017 02:55:00 15.8 C 95 % 15 C
1765 15-08-2017 03:00:00 15.8 C 95 % 15 C
1766 15-08-2017 03:05:00 15.7 C 95 % 14.9 C
1767 15-08-2017 03:10:00 15.7 C 95 % 14.9 C
1768 15-08-2017 03:15:00 15.7 C 95 % 14.9 C
1769 15-08-2017 03:20:00 15.8 C 95 % 15 C
1770 15-08-2017 03:25:00 15.7 C 95 % 14.9 C
1771 15-08-2017 03:30:00 15.8 C 96 % 15.16 C
1772 15-08-2017 03:35:00 15.8 C 96 % 15.16 C
1773 15-08-2017 03:40:00 15.7 C 95 % 14.9 C
1774 15-08-2017 03:45:00 15.7 C 96 % 15.06 C
1775 15-08-2017 03:50:00 15.7 C 96 % 15.06 C
Sensor: Nr:Datum:Temp:Feuchte:Taupunkt:
Aussen-T/F 1776 15-08-2017 03:55:00 15.8 C 96 % 15.16 C
1777 15-08-2017 04:00:00 15.8 C 96 % 15.16 C
1778 15-08-2017 04:05:00 15.7 C 96 % 15.06 C
1779 15-08-2017 04:10:00 15.6 C 95 % 14.8 C
1780 15-08-2017 04:15:00 15.6 C 96 % 14.96 C
1781 15-08-2017 04:20:00 15.5 C 96 % 14.86 C
1782 15-08-2017 04:25:00 15.4 C 96 % 14.77 C
1783 15-08-2017 04:30:00 15.4 C 96 % 14.77 C
1784 15-08-2017 04:35:00 15.4 C 96 % 14.77 C
1785 15-08-2017 04:40:00 15.4 C 96 % 14.77 C
1786 15-08-2017 04:45:00 15.4 C 96 % 14.77 C
1787 15-08-2017 04:50:00 15.4 C 96 % 14.77 C
1788 15-08-2017 04:55:00 15.3 C 96 % 14.67 C
1789 15-08-2017 05:00:00 15.4 C 96 % 14.77 C
1790 15-08-2017 05:05:00 15.3 C 96 % 14.67 C
1791 15-08-2017 05:10:00 15.3 C 96 % 14.67 C
1792 15-08-2017 05:15:00 15.3 C 96 % 14.67 C
1793 15-08-2017 05:20:00 15.3 C 96 % 14.67 C
1794 15-08-2017 05:25:00 15.4 C 96 % 14.77 C
1795 15-08-2017 05:30:00 15.3 C 96 % 14.67 C
1796 15-08-2017 05:35:00 15.4 C 96 % 14.77 C
1797 15-08-2017 05:40:00 15.4 C 96 % 14.77 C
1798 15-08-2017 05:45:00 15.4 C 96 % 14.77 C
1799 15-08-2017 05:50:00 15.3 C 96 % 14.67 C
1800 15-08-2017 05:55:00 15.4 C 96 % 14.77 C
Sensor: Nr:Datum:Temp:Feuchte:Taupunkt:
Aussen-T/F 1801 15-08-2017 06:00:00 15.4 C 96 % 14.77 C
1802 15-08-2017 06:05:00 15.4 C 96 % 14.77 C
1803 15-08-2017 06:10:00 15.4 C 96 % 14.77 C
1804 15-08-2017 06:15:00 15.3 C 96 % 14.67 C
1805 15-08-2017 06:20:00 15.3 C 96 % 14.67 C
1806 15-08-2017 06:25:00 15.3 C 96 % 14.67 C
1807 15-08-2017 06:30:00 15.2 C 96 % 14.57 C
1808 15-08-2017 06:35:00 15.2 C 96 % 14.57 C
1809 15-08-2017 06:40:00 15.1 C 96 % 14.47 C
1810 15-08-2017 06:45:00 14.9 C 96 % 14.27 C
1811 15-08-2017 06:50:00 14.9 C 96 % 14.27 C
1812 15-08-2017 06:55:00 14.9 C 96 % 14.27 C
1813 15-08-2017 07:00:00 14.9 C 96 % 14.27 C
1814 15-08-2017 07:05:00 15.1 C 96 % 14.47 C
1815 15-08-2017 07:10:00 15.3 C 97 % 14.83 C
1816 15-08-2017 07:15:00 15.4 C 97 % 14.93 C
1817 15-08-2017 07:20:00 15.4 C 97 % 14.93 C
1818 15-08-2017 07:25:00 15.5 C 97 % 15.03 C
1819 15-08-2017 07:30:00 15.6 C 97 % 15.13 C
1820 15-08-2017 07:35:00 15.5 C 97 % 15.03 C
1821 15-08-2017 07:40:00 15.5 C 96 % 14.86 C
1822 15-08-2017 07:45:00 15.5 C 96 % 14.86 C
1823 15-08-2017 07:50:00 15.6 C 97 % 15.13 C
1824 15-08-2017 07:55:00 15.7 C 97 % 15.23 C
1825 15-08-2017 08:00:00 15.7 C 97 % 15.23 C
Sensor: Nr:Datum:Temp:Feuchte:Taupunkt:
Aussen-T/F 1826 15-08-2017 08:05:00 15.8 C 97 % 15.32 C
1827 15-08-2017 08:10:00 15.8 C 97 % 15.32 C
1828 15-08-2017 08:15:00 15.8 C 97 % 15.32 C
1829 15-08-2017 08:20:00 15.9 C 97 % 15.42 C
1830 15-08-2017 08:25:00 16 C 97 % 15.52 C
1831 15-08-2017 08:30:00 16.1 C 97 % 15.62 C
1832 15-08-2017 08:35:00 16.2 C 97 % 15.72 C
1833 15-08-2017 08:40:00 16.4 C 97 % 15.92 C
1834 15-08-2017 08:45:00 16.5 C 97 % 16.02 C
1835 15-08-2017 08:50:00 16.6 C 97 % 16.12 C
1836 15-08-2017 08:55:00 16.7 C 97 % 16.22 C
1837 15-08-2017 09:00:00 16.7 C 97 % 16.22 C
1838 15-08-2017 09:05:00 16.7 C 97 % 16.22 C
1839 15-08-2017 09:10:00 16.8 C 97 % 16.32 C
1840 15-08-2017 09:15:00 16.8 C 97 % 16.32 C
1841 15-08-2017 09:20:00 17 C 97 % 16.52 C
1842 15-08-2017 09:25:00 17.1 C 97 % 16.62 C
1843 15-08-2017 09:30:00 17.3 C 97 % 16.82 C
1844 15-08-2017 09:35:00 17.4 C 97 % 16.92 C
1845 15-08-2017 09:40:00 17.7 C 97 % 17.22 C
1846 15-08-2017 09:45:00 17.9 C 97 % 17.42 C
1847 15-08-2017 09:50:00 18.1 C 97 % 17.62 C
1848 15-08-2017 09:55:00 18.3 C 97 % 17.82 C
1849 15-08-2017 10:00:00 18.6 C 97 % 18.11 C
1850 15-08-2017 10:05:00 18.8 C 97 % 18.31 C
Sensor: Nr:Datum:Temp:Feuchte:Taupunkt:
Aussen-T/F 1851 15-08-2017 10:10:00 18.8 C 97 % 18.31 C
1852 15-08-2017 10:15:00 18.9 C 97 % 18.41 C
1853 15-08-2017 10:20:00 19 C 97 % 18.51 C
1854 15-08-2017 10:25:00 19.1 C 97 % 18.61 C
1855 15-08-2017 10:30:00 19.2 C 97 % 18.71 C
1856 15-08-2017 10:35:00 19.1 C 97 % 18.61 C
1857 15-08-2017 10:40:00 19.2 C 97 % 18.71 C
1858 15-08-2017 10:45:00 19.3 C 97 % 18.81 C
1859 15-08-2017 10:50:00 19.4 C 97 % 18.91 C
1860 15-08-2017 10:55:00 19.4 C 97 % 18.91 C
1861 15-08-2017 11:00:00 19.6 C 97 % 19.11 C
1862 15-08-2017 11:05:00 19.7 C 97 % 19.21 C
1863 15-08-2017 11:10:00 19.8 C 97 % 19.31 C
1864 15-08-2017 11:15:00 19.9 C 97 % 19.41 C
1865 15-08-2017 11:20:00 19.8 C 96 % 19.14 C
1866 15-08-2017 11:25:00 19.8 C 96 % 19.14 C
1867 15-08-2017 11:30:00 19.8 C 96 % 19.14 C
1868 15-08-2017 11:35:00 19.9 C 96 % 19.24 C
1869 15-08-2017 11:40:00 20 C 96 % 19.34 C
1870 15-08-2017 11:45:00 20 C 96 % 19.34 C
1871 15-08-2017 11:50:00 19.9 C 95 % 19.07 C
1872 15-08-2017 11:55:00 19.9 C 95 % 19.07 C
1873 15-08-2017 12:00:00 19.9 C 95 % 19.07 C
1874 15-08-2017 12:05:00 19.9 C 95 % 19.07 C
1875 15-08-2017 12:10:00 19.9 C 95 % 19.07 C
Sensor: Nr:Datum:Temp:Feuchte:Taupunkt:
Aussen-T/F 1876 15-08-2017 12:15:00 19.9 C 94 % 18.91 C
1877 15-08-2017 12:20:00 20 C 95 % 19.17 C
1878 15-08-2017 12:25:00 20.1 C 94 % 19.1 C
1879 15-08-2017 12:30:00 20.3 C 94 % 19.3 C
1880 15-08-2017 12:35:00 20.6 C 94 % 19.6 C
1881 15-08-2017 12:40:00 20.7 C 94 % 19.7 C
1882 15-08-2017 12:45:00 20.6 C 93 % 19.43 C
1883 15-08-2017 12:50:00 20.6 C 93 % 19.43 C
1884 15-08-2017 12:55:00 20.4 C 92 % 19.06 C
1885 15-08-2017 13:00:00 20.2 C 92 % 18.86 C
1886 15-08-2017 13:05:00 20.1 C 93 % 18.93 C
1887 15-08-2017 13:10:00 20.1 C 94 % 19.1 C
1888 15-08-2017 13:15:00 20.2 C 95 % 19.37 C
1889 15-08-2017 13:20:00 20.4 C 95 % 19.57 C
1890 15-08-2017 13:25:00 20.7 C 96 % 20.04 C
1891 15-08-2017 13:30:00 20.7 C 95 % 19.87 C
1892 15-08-2017 13:35:00 20.6 C 94 % 19.6 C
1893 15-08-2017 13:40:00 20.6 C 93 % 19.43 C
1894 15-08-2017 13:45:00 20.7 C 92 % 19.35 C
1895 15-08-2017 13:50:00 20.8 C 93 % 19.63 C
1896 15-08-2017 13:55:00 21 C 93 % 19.82 C
1897 15-08-2017 14:00:00 21.2 C 94 % 20.19 C
1898 15-08-2017 14:05:00 21.3 C 93 % 20.12 C
1899 15-08-2017 14:10:00 21.3 C 93 % 20.12 C
1900 15-08-2017 14:15:00 21.4 C 93 % 20.22 C
Sensor: Nr:Datum:Temp:Feuchte:Taupunkt:
Aussen-T/F 1901 15-08-2017 14:20:00 21.4 C 93 % 20.22 C
1902 15-08-2017 14:25:00 21.4 C 92 % 20.05 C
1903 15-08-2017 14:30:00 21.7 C 93 % 20.52 C
1904 15-08-2017 14:35:00 21.8 C 92 % 20.44 C
1905 15-08-2017 14:40:00 21.9 C 92 % 20.54 C
1906 15-08-2017 14:45:00 22.1 C 92 % 20.74 C
1907 15-08-2017 14:50:00 22.3 C 93 % 21.11 C
1908 15-08-2017 14:55:00 22.4 C 91 % 20.86 C
1909 15-08-2017 15:00:00 22.6 C 90 % 20.87 C
1910 15-08-2017 15:05:00 22.9 C 92 % 21.53 C
1911 15-08-2017 15:10:00 23.1 C 92 % 21.73 C
1912 15-08-2017 15:15:00 23 C 91 % 21.45 C
1913 15-08-2017 15:20:00 22.8 C 90 % 21.07 C
1914 15-08-2017 15:25:00 22.7 C 90 % 20.97 C
1915 15-08-2017 15:30:00 22.5 C 91 % 20.96 C
1916 15-08-2017 15:35:00 22.3 C 91 % 20.76 C
1917 15-08-2017 15:40:00 22.1 C 90 % 20.38 C
1918 15-08-2017 15:45:00 21.9 C 90 % 20.18 C
1919 15-08-2017 15:50:00 21.9 C 91 % 20.36 C
1920 15-08-2017 15:55:00 21.9 C 92 % 20.54 C
1921 15-08-2017 16:00:00 21.9 C 92 % 20.54 C
1922 15-08-2017 16:05:00 21.9 C 92 % 20.54 C
1923 15-08-2017 16:10:00 22.1 C 93 % 20.91 C
1924 15-08-2017 16:15:00 22.1 C 93 % 20.91 C
1925 15-08-2017 16:20:00 22.1 C 92 % 20.74 C
Sensor: Nr:Datum:Temp:Feuchte:Taupunkt:
Aussen-T/F 1926 15-08-2017 16:25:00 22.2 C 93 % 21.01 C
1927 15-08-2017 16:30:00 22.3 C 93 % 21.11 C
1928 15-08-2017 16:35:00 22.5 C 93 % 21.31 C
1929 15-08-2017 16:40:00 22.6 C 93 % 21.41 C
1930 15-08-2017 16:45:00 22.7 C 93 % 21.51 C
1931 15-08-2017 16:50:00 22.7 C 92 % 21.33 C
1932 15-08-2017 16:55:00 22.6 C 91 % 21.05 C
1933 15-08-2017 17:00:00 22.5 C 90 % 20.78 C
1934 15-08-2017 17:05:00 22.3 C 90 % 20.58 C
1935 15-08-2017 17:10:00 22.2 C 90 % 20.48 C
1936 15-08-2017 17:15:00 22.1 C 90 % 20.38 C
1937 15-08-2017 17:20:00 22 C 90 % 20.28 C
1938 15-08-2017 17:25:00 21.9 C 90 % 20.18 C
1939 15-08-2017 17:30:00 21.9 C 91 % 20.36 C
1940 15-08-2017 17:35:00 21.9 C 91 % 20.36 C
1941 15-08-2017 17:40:00 21.8 C 91 % 20.26 C
1942 15-08-2017 17:45:00 21.9 C 91 % 20.36 C
1943 15-08-2017 17:50:00 22.1 C 92 % 20.74 C
1944 15-08-2017 17:55:00 22.3 C 91 % 20.76 C
1945 15-08-2017 18:00:00 22.8 C 88 % 20.71 C
1946 15-08-2017 18:05:00 23.2 C 89 % 21.28 C
1947 15-08-2017 18:10:00 23.3 C 85 % 20.63 C
1948 15-08-2017 18:15:00 23.2 C 84 % 20.34 C
1949 15-08-2017 18:20:00 23.1 C 85 % 20.44 C
1950 15-08-2017 18:25:00 23 C 86 % 20.53 C
Sensor: Nr:Datum:Temp:Feuchte:Taupunkt:
Aussen-T/F 1951 15-08-2017 18:30:00 22.7 C 85 % 20.05 C
1952 15-08-2017 18:35:00 22.5 C 86 % 20.04 C
1953 15-08-2017 18:40:00 22.3 C 87 % 20.03 C
1954 15-08-2017 18:45:00 22.1 C 87 % 19.83 C
1955 15-08-2017 18:50:00 21.9 C 88 % 19.82 C
1956 15-08-2017 18:55:00 21.8 C 89 % 19.9 C
1957 15-08-2017 19:00:00 21.7 C 90 % 19.99 C
1958 15-08-2017 19:05:00 21.7 C 90 % 19.99 C
1959 15-08-2017 19:10:00 21.6 C 89 % 19.71 C
1960 15-08-2017 19:15:00 21.6 C 89 % 19.71 C
1961 15-08-2017 19:20:00 21.5 C 88 % 19.43 C
1962 15-08-2017 19:25:00 21.4 C 88 % 19.33 C
1963 15-08-2017 19:30:00 21.3 C 89 % 19.41 C
1964 15-08-2017 19:35:00 21.2 C 88 % 19.13 C
1965 15-08-2017 19:40:00 21.1 C 89 % 19.22 C
1966 15-08-2017 19:45:00 21 C 89 % 19.12 C
1967 15-08-2017 19:50:00 20.9 C 89 % 19.02 C
1968 15-08-2017 19:55:00 20.8 C 89 % 18.92 C
1969 15-08-2017 20:00:00 20.7 C 88 % 18.64 C
1970 15-08-2017 20:05:00 20.7 C 89 % 18.82 C
1971 15-08-2017 20:10:00 20.7 C 89 % 18.82 C
1972 15-08-2017 20:15:00 20.6 C 89 % 18.72 C
1973 15-08-2017 20:20:00 20.5 C 89 % 18.62 C
1974 15-08-2017 20:25:00 20.4 C 89 % 18.53 C
1975 15-08-2017 20:30:00 20.3 C 89 % 18.43 C
Sensor: Nr:Datum:Temp:Feuchte:Taupunkt:
Aussen-T/F 1976 15-08-2017 20:35:00 20.2 C 90 % 18.51 C
1977 15-08-2017 20:40:00 20.2 C 90 % 18.51 C
1978 15-08-2017 20:45:00 20.1 C 90 % 18.41 C
1979 15-08-2017 20:50:00 20 C 90 % 18.31 C
1980 15-08-2017 20:55:00 19.9 C 90 % 18.21 C
1981 15-08-2017 21:00:00 19.8 C 90 % 18.11 C
1982 15-08-2017 21:05:00 19.8 C 90 % 18.11 C
1983 15-08-2017 21:10:00 19.7 C 90 % 18.01 C
1984 15-08-2017 21:15:00 19.7 C 90 % 18.01 C
1985 15-08-2017 21:20:00 19.6 C 90 % 17.91 C
1986 15-08-2017 21:25:00 19.6 C 91 % 18.09 C
1987 15-08-2017 21:30:00 19.5 C 91 % 17.99 C
1988 15-08-2017 21:35:00 19.4 C 91 % 17.89 C
1989 15-08-2017 21:40:00 19.3 C 91 % 17.79 C
1990 15-08-2017 21:45:00 19.2 C 91 % 17.69 C
1991 15-08-2017 21:50:00 19.1 C 92 % 17.77 C
1992 15-08-2017 21:55:00 19 C 92 % 17.67 C
1993 15-08-2017 22:00:00 18.9 C 92 % 17.57 C
1994 15-08-2017 22:05:00 18.8 C 92 % 17.47 C
1995 15-08-2017 22:10:00 18.8 C 92 % 17.47 C
1996 15-08-2017 22:15:00 18.9 C 93 % 17.74 C
1997 15-08-2017 22:20:00 18.9 C 93 % 17.74 C
1998 15-08-2017 22:25:00 18.9 C 93 % 17.74 C
1999 15-08-2017 22:30:00 18.9 C 93 % 17.74 C
2000 15-08-2017 22:35:00 18.9 C 93 % 17.74 C
Sensor: Nr:Datum:Temp:Feuchte:Taupunkt:
Aussen-T/F 2001 15-08-2017 22:40:00 18.9 C 93 % 17.74 C
2002 15-08-2017 22:45:00 18.9 C 93 % 17.74 C
2003 15-08-2017 22:50:00 19 C 93 % 17.84 C
2004 15-08-2017 22:55:00 19.1 C 93 % 17.94 C
2005 15-08-2017 23:00:00 19.1 C 93 % 17.94 C
2006 15-08-2017 23:05:00 19.2 C 93 % 18.04 C
2007 15-08-2017 23:10:00 19.4 C 93 % 18.24 C
2008 15-08-2017 23:15:00 19.5 C 93 % 18.34 C
2009 15-08-2017 23:20:00 19.6 C 93 % 18.44 C
2010 15-08-2017 23:25:00 19.6 C 93 % 18.44 C
2011 15-08-2017 23:30:00 19.6 C 93 % 18.44 C
2012 15-08-2017 23:35:00 19.6 C 93 % 18.44 C
2013 15-08-2017 23:40:00 19.5 C 93 % 18.34 C
2014 15-08-2017 23:45:00 19.4 C 93 % 18.24 C
2015 15-08-2017 23:50:00 19.4 C 94 % 18.41 C
2016 15-08-2017 23:55:00 19.3 C 94 % 18.31 C

Legende:
   Min
   Max


Maximal/Minimal-Werte vom 09.08.2017 - 15.08.2017

Sensor Min Max Avg
Temp
(Aussen-T/F)
11.6 °C
14-08-2017  04:55:00
27.2 °C
14-08-2017  18:35:00
16.94 °C
Feuchte
(Aussen-T/F)
49 %
09-08-2017  16:15:00
98 %
12-08-2017  09:10:00
89.65 %
Taupunkt
(Aussen-T/F)
10.98 C
14-08-2017  04:55:00
21.74 C
14-08-2017  18:25:00
15.1 C

Die Daten stammen von einer Davis Vantage Pro 2 Wetter-Station und werden unter Linux mit der Software wview2wettercgi und aufbereitet. Alle Angaben erfolgen ohne Gewähr für ihre Vollständigkeit oder Richtigkeit.
Kontakt: Rainer Krienke krienke@uni-koblenz.de . Meine Webseiten an der Uni Koblenz oder privat.
Version: $Revision: 0.78 $